Observation data for Sweetwater on 06/20/2019      Previous  Date  Next       Current Mesonet Observations  Soil Data  Daily Summary Page  Observations in Plain Language
KSW1 200500Z 11009KT 23/17 A2984 RMK A01 T02310166  RH  067%=      5-min Rain = 0
KSW1 200501Z 11008KT 23/17 A2984 RMK A01 T02310166  RH  067%=      5-min Rain = 0
KSW1 200502Z 11009KT 23/17 A2984 RMK A01 T02310166  RH  067%=      5-min Rain = 0
KSW1 200503Z 11007KT 23/17 A2984 RMK A01 T02310166  RH  066%=      5-min Rain = 0
KSW1 200504Z 11007KT 23/17 A2984 RMK A01 T02310165  RH  066%=      5-min Rain = 0
KSW1 200505Z 11007KT 23/17 A2984 RMK A01 T02310166  RH  067%=      5-min Rain = 0
KSW1 200506Z 11007KT 23/17 A2984 RMK A01 T02300166  RH  067%=      5-min Rain = 0
KSW1 200507Z 11006KT 23/17 A2984 RMK A01 T02300166  RH  067%=      5-min Rain = 0
KSW1 200508Z 12006KT 23/17 A2984 RMK A01 T02290166  RH  068%=      5-min Rain = 0
KSW1 200509Z 12006KT 23/17 A2984 RMK A01 T02280166  RH  068%=      5-min Rain = 0
KSW1 200510Z 12006KT 23/17 A2984 RMK A01 T02280166  RH  068%=      5-min Rain = 0
KSW1 200511Z 12006KT 23/17 A2984 RMK A01 T02270166  RH  069%=      5-min Rain = 0
KSW1 200512Z 12007KT 23/17 A2984 RMK A01 T02260166  RH  069%=      5-min Rain = 0
KSW1 200513Z 12007KT 23/17 A2984 RMK A01 T02250166  RH  069%=      5-min Rain = 0
KSW1 200514Z 12007KT 23/17 A2984 RMK A01 T02250166  RH  069%=      5-min Rain = 0
KSW1 200515Z 12008KT 22/17 A2984 RMK A01 T02240166  RH  069%=      5-min Rain = 0
KSW1 200516Z 12008KT 22/17 A2984 RMK A01 T02240166  RH  069%=      5-min Rain = 0
KSW1 200517Z 12009KT 22/17 A2984 RMK A01 T02240166  RH  070%=      5-min Rain = 0
KSW1 200518Z 12009KT 22/17 A2984 RMK A01 T02240166  RH  070%=      5-min Rain = 0
KSW1 200519Z 12009KT 22/17 A2984 RMK A01 T02230165  RH  070%=      5-min Rain = 0
KSW1 200520Z 12009KT 22/17 A2984 RMK A01 T02240165  RH  069%=      5-min Rain = 0
KSW1 200521Z 12008KT 22/16 A2984 RMK A01 T02240164  RH  069%=      5-min Rain = 0
KSW1 200522Z 12008KT 23/16 A2984 RMK A01 T02250164  RH  069%=      5-min Rain = 0
KSW1 200523Z 12007KT 23/16 A2984 RMK A01 T02250164  RH  069%=      5-min Rain = 0
KSW1 200524Z 12007KT 23/16 A2984 RMK A01 T02250164  RH  069%=      5-min Rain = 0
KSW1 200525Z 12007KT 23/17 A2984 RMK A01 T02250165  RH  069%=      5-min Rain = 0
KSW1 200526Z 12006KT 22/17 A2984 RMK A01 T02240165  RH  069%=      5-min Rain = 0
KSW1 200527Z 13006KT 22/17 A2984 RMK A01 T02240165  RH  069%=      5-min Rain = 0
KSW1 200528Z 12006KT 22/17 A2984 RMK A01 T02240165  RH  069%=      5-min Rain = 0
KSW1 200529Z 12006KT 22/17 A2984 RMK A01 T02240165  RH  069%=      5-min Rain = 0
KSW1 200530Z 12006KT 22/17 A2984 RMK A01 T02230165  RH  070%=      5-min Rain = 0
KSW1 200531Z 13007KT 22/17 A2984 RMK A01 T02230165  RH  070%=      5-min Rain = 0
KSW1 200532Z 12007KT 22/17 A2984 RMK A01 T02220165  RH  070%=      5-min Rain = 0
KSW1 200533Z 13007KT 22/16 A2984 RMK A01 T02220164  RH  070%=      5-min Rain = 0
KSW1 200534Z 13007KT 22/17 A2984 RMK A01 T02230165  RH  070%=      5-min Rain = 0
KSW1 200535Z 13007KT 22/16 A2984 RMK A01 T02230164  RH  069%=      5-min Rain = 0
KSW1 200536Z 13007KT 22/16 A2984 RMK A01 T02230164  RH  069%=      5-min Rain = 0
KSW1 200537Z 13008KT 22/16 A2985 RMK A01 T02230164  RH  069%=      5-min Rain = 0
KSW1 200538Z 13008KT 22/16 A2985 RMK A01 T02230164  RH  069%=      5-min Rain = 0
KSW1 200539Z 13008KT 22/16 A2985 RMK A01 T02230163  RH  069%=      5-min Rain = 0
KSW1 200540Z 13008KT 23/16 A2985 RMK A01 T02250163  RH  068%=      5-min Rain = 0
KSW1 200541Z 13008KT 23/16 A2985 RMK A01 T02250163  RH  068%=      5-min Rain = 0
KSW1 200542Z 13008KT 23/16 A2985 RMK A01 T02260163  RH  067%=      5-min Rain = 0
KSW1 200543Z 13008KT 23/16 A2985 RMK A01 T02270163  RH  067%=      5-min Rain = 0
KSW1 200544Z 13007KT 23/16 A2985 RMK A01 T02270163  RH  067%=      5-min Rain = 0
KSW1 200545Z 13007KT 23/16 A2985 RMK A01 T02270163  RH  067%=      5-min Rain = 0
KSW1 200546Z 12008KT 23/16 A2985 RMK A01 T02270163  RH  067%=      5-min Rain = 0
KSW1 200547Z 12008KT 23/16 A2985 RMK A01 T02280162  RH  067%=      5-min Rain = 0
KSW1 200548Z 12008KT 23/16 A2985 RMK A01 T02280162  RH  066%=      5-min Rain = 0
KSW1 200549Z 12008KT 23/16 A2985 RMK A01 T02290162  RH  066%=      5-min Rain = 0
KSW1 200550Z 12007KT 23/16 A2985 RMK A01 T02290162  RH  066%=      5-min Rain = 0
KSW1 200551Z 12007KT 23/16 A2985 RMK A01 T02280163  RH  066%=      5-min Rain = 0
KSW1 200552Z 11007KT 23/16 A2985 RMK A01 T02280162  RH  066%=      5-min Rain = 0
KSW1 200553Z 11007KT 23/16 A2985 RMK A01 T02280162  RH  066%=      5-min Rain = 0
KSW1 200554Z 11007KT 23/16 A2985 RMK A01 T02280162  RH  066%=      5-min Rain = 0
KSW1 200555Z 11008KT 23/16 A2985 RMK A01 T02280162  RH  066%=      5-min Rain = 0
KSW1 200556Z 11008KT 23/16 A2985 RMK A01 T02280162  RH  066%=      5-min Rain = 0
KSW1 200557Z 11009KT 23/16 A2985 RMK A01 T02280162  RH  066%=      5-min Rain = 0
KSW1 200558Z 11009KT 23/16 A2985 RMK A01 T02280162  RH  066%=      5-min Rain = 0
KSW1 200559Z 11009KT 23/16 A2985 RMK A01 T02280162  RH  066%=      5-min Rain = 0
KSW1 200600Z 11009KT 23/16 A2985 RMK A01 T02280162  RH  066%=      5-min Rain = 0
KSW1 200601Z 11009KT 23/16 A2985 RMK A01 T02280161  RH  066%=      5-min Rain = 0
KSW1 200602Z 11009KT 23/16 A2985 RMK A01 T02280161  RH  066%=      5-min Rain = 0
KSW1 200603Z 11009KT 23/16 A2985 RMK A01 T02290161  RH  065%=      5-min Rain = 0
KSW1 200604Z 11009KT 23/16 A2985 RMK A01 T02300161  RH  065%=      5-min Rain = 0
KSW1 200605Z 11010KT 23/16 A2985 RMK A01 T02300161  RH  065%=      5-min Rain = 0
KSW1 200606Z 12010KT 23/16 A2985 RMK A01 T02300161  RH  065%=      5-min Rain = 0
KSW1 200607Z 12009KT 23/16 A2985 RMK A01 T02320161  RH  065%=      5-min Rain = 0
KSW1 200608Z 12010KT 23/16 A2985 RMK A01 T02320161  RH  064%=      5-min Rain = 0
KSW1 200609Z 12010KT 23/16 A2985 RMK A01 T02320161  RH  064%=      5-min Rain = 0
KSW1 200610Z 12010KT 23/16 A2985 RMK A01 T02330161  RH  064%=      5-min Rain = 0
KSW1 200611Z 12010KT 23/16 A2985 RMK A01 T02330161  RH  064%=      5-min Rain = 0
KSW1 200612Z 12010KT 23/16 A2985 RMK A01 T02340161  RH  064%=      5-min Rain = 0
KSW1 200613Z 12010KT 23/16 A2985 RMK A01 T02340161  RH  064%=      5-min Rain = 0
KSW1 200614Z 12010KT 23/16 A2984 RMK A01 T02340161  RH  063%=      5-min Rain = 0
KSW1 200615Z 12010KT 23/16 A2984 RMK A01 T02340161  RH  063%=      5-min Rain = 0
KSW1 200616Z 12009KT 23/16 A2984 RMK A01 T02340161  RH  064%=      5-min Rain = 0
KSW1 200617Z 12009KT 23/16 A2984 RMK A01 T02340162  RH  064%=      5-min Rain = 0
KSW1 200618Z 12010KT 23/16 A2984 RMK A01 T02330162  RH  064%=      5-min Rain = 0
KSW1 200619Z 12010KT 23/16 A2984 RMK A01 T02330162  RH  065%=      5-min Rain = 0
KSW1 200620Z 12010KT 23/16 A2984 RMK A01 T02320162  RH  065%=      5-min Rain = 0
KSW1 200621Z 12010KT 23/16 A2984 RMK A01 T02320162  RH  065%=      5-min Rain = 0
KSW1 200622Z 12011KT 23/16 A2984 RMK A01 T02310162  RH  065%=      5-min Rain = 0
KSW1 200623Z 12010KT 23/16 A2984 RMK A01 T02310162  RH  065%=      5-min Rain = 0
KSW1 200624Z 13011KT 23/16 A2984 RMK A01 T02320161  RH  065%=      5-min Rain = 0
KSW1 200625Z 13011KT 23/16 A2984 RMK A01 T02320162  RH  064%=      5-min Rain = 0
KSW1 200626Z 13011KT 23/16 A2984 RMK A01 T02330161  RH  064%=      5-min Rain = 0
KSW1 200627Z 13012KT 23/16 A2984 RMK A01 T02330162  RH  064%=      5-min Rain = 0
KSW1 200628Z 13012KT 23/16 A2984 RMK A01 T02330161  RH  064%=      5-min Rain = 0
KSW1 200629Z 13010KT 23/16 A2984 RMK A01 T02330161  RH  064%=      5-min Rain = 0
KSW1 200630Z 13011KT 23/16 A2984 RMK A01 T02330162  RH  064%=      5-min Rain = 0
KSW1 200631Z 13012KT 23/16 A2984 RMK A01 T02330162  RH  064%=      5-min Rain = 0
KSW1 200632Z 13012KT 23/16 A2984 RMK A01 T02330162  RH  064%=      5-min Rain = 0
KSW1 200633Z 13011KT 23/16 A2984 RMK A01 T02330162  RH  064%=      5-min Rain = 0
KSW1 200634Z 13012KT 23/16 A2984 RMK A01 T02330162  RH  064%=      5-min Rain = 0
KSW1 200635Z 13012KT 23/16 A2984 RMK A01 T02320162  RH  064%=      5-min Rain = 0
KSW1 200636Z 13013KT 23/16 A2984 RMK A01 T02320161  RH  064%=      5-min Rain = 0
KSW1 200637Z 14012KT 23/16 A2984 RMK A01 T02330161  RH  064%=      5-min Rain = 0
KSW1 200638Z 14011KT 23/16 A2984 RMK A01 T02330162  RH  064%=      5-min Rain = 0
KSW1 200639Z 14012KT 23/16 A2984 RMK A01 T02330162  RH  064%=      5-min Rain = 0
KSW1 200640Z 14011KT 23/16 A2983 RMK A01 T02330161  RH  064%=      5-min Rain = 0
KSW1 200641Z 14012KT 23/16 A2984 RMK A01 T02330162  RH  064%=      5-min Rain = 0
KSW1 200642Z 14013KT 23/16 A2984 RMK A01 T02330162  RH  064%=      5-min Rain = 0
KSW1 200643Z 14012KT 23/16 A2983 RMK A01 T02330162  RH  064%=      5-min Rain = 0
KSW1 200644Z 14011KT 23/16 A2984 RMK A01 T02330162  RH  064%=      5-min Rain = 0
KSW1 200645Z 14012KT 23/16 A2984 RMK A01 T02330163  RH  065%=      5-min Rain = 0
KSW1 200646Z 14010KT 23/16 A2983 RMK A01 T02330162  RH  065%=      5-min Rain = 0
KSW1 200647Z 14010KT 23/16 A2984 RMK A01 T02330163  RH  065%=      5-min Rain = 0
KSW1 200648Z 14011KT 23/16 A2983 RMK A01 T02320163  RH  065%=      5-min Rain = 0
KSW1 200649Z 14011KT 23/16 A2984 RMK A01 T02310163  RH  066%=      5-min Rain = 0
KSW1 200650Z 14012KT 23/16 A2984 RMK A01 T02310164  RH  066%=      5-min Rain = 0
KSW1 200651Z 14012KT 23/16 A2984 RMK A01 T02300164  RH  066%=      5-min Rain = 0
KSW1 200652Z 14011KT 23/16 A2984 RMK A01 T02300164  RH  067%=      5-min Rain = 0
KSW1 200653Z 14012KT 23/16 A2984 RMK A01 T02290164  RH  067%=      5-min Rain = 0
KSW1 200654Z 14012KT 23/17 A2984 RMK A01 T02280165  RH  067%=      5-min Rain = 0
KSW1 200655Z 14011KT 23/17 A2983 RMK A01 T02280165  RH  068%=      5-min Rain = 0
KSW1 200656Z 14011KT 23/17 A2983 RMK A01 T02270165  RH  068%=      5-min Rain = 0
KSW1 200657Z 14010KT 23/17 A2983 RMK A01 T02270166  RH  068%=      5-min Rain = 0
KSW1 200658Z 14010KT 23/17 A2983 RMK A01 T02260166  RH  069%=      5-min Rain = 0
KSW1 200659Z 13010KT 23/17 A2983 RMK A01 T02260166  RH  069%=      5-min Rain = 0
KSW1 200700Z 14011KT 23/17 A2983 RMK A01 T02250167  RH  069%=      5-min Rain = 0
KSW1 200701Z 14010KT 23/17 A2983 RMK A01 T02250167  RH  070%=      5-min Rain = 0
KSW1 200702Z 13009KT 22/17 A2983 RMK A01 T02240167  RH  070%=      5-min Rain = 0
KSW1 200703Z 13009KT 22/17 A2983 RMK A01 T02240167  RH  070%=      5-min Rain = 0
KSW1 200704Z 13010KT 22/17 A2983 RMK A01 T02230167  RH  071%=      5-min Rain = 0
KSW1 200705Z 13010KT 22/17 A2983 RMK A01 T02230168  RH  071%=      5-min Rain = 0
KSW1 200706Z 13012KT 22/17 A2983 RMK A01 T02220168  RH  071%=      5-min Rain = 0
KSW1 200707Z 14011KT 22/17 A2983 RMK A01 T02220168  RH  071%=      5-min Rain = 0
KSW1 200708Z 13010KT 22/17 A2983 RMK A01 T02220168  RH  071%=      5-min Rain = 0
KSW1 200709Z 14009KT 22/17 A2983 RMK A01 T02220167  RH  071%=      5-min Rain = 0
KSW1 200710Z 14010KT 22/17 A2983 RMK A01 T02220167  RH  071%=      5-min Rain = 0
KSW1 200711Z 14009KT 22/17 A2983 RMK A01 T02220168  RH  071%=      5-min Rain = 0
KSW1 200712Z 14010KT 22/17 A2983 RMK A01 T02220168  RH  071%=      5-min Rain = 0
KSW1 200713Z 14009KT 22/17 A2983 RMK A01 T02220167  RH  071%=      5-min Rain = 0
KSW1 200714Z 14010KT 22/17 A2983 RMK A01 T02220167  RH  071%=      5-min Rain = 0
KSW1 200715Z 14010KT 22/17 A2983 RMK A01 T02230167  RH  071%=      5-min Rain = 0
KSW1 200716Z 14011KT 22/17 A2983 RMK A01 T02230167  RH  071%=      5-min Rain = 0
KSW1 200717Z 15010KT 22/17 A2983 RMK A01 T02230166  RH  070%=      5-min Rain = 0
KSW1 200718Z 14008KT 22/17 A2983 RMK A01 T02230166  RH  070%=      5-min Rain = 0
KSW1 200719Z 15011KT 22/17 A2983 RMK A01 T02230167  RH  071%=      5-min Rain = 0
KSW1 200720Z 15010KT 22/17 A2983 RMK A01 T02230167  RH  070%=      5-min Rain = 0
KSW1 200721Z 15010KT 22/17 A2983 RMK A01 T02230167  RH  070%=      5-min Rain = 0
KSW1 200722Z 14009KT 22/17 A2983 RMK A01 T02230167  RH  070%=      5-min Rain = 0
KSW1 200723Z 14010KT 22/17 A2983 RMK A01 T02230167  RH  070%=      5-min Rain = 0
KSW1 200724Z 14011KT 22/17 A2983 RMK A01 T02230167  RH  070%=      5-min Rain = 0
KSW1 200725Z 14010KT 22/17 A2983 RMK A01 T02230167  RH  070%=      5-min Rain = 0
KSW1 200726Z 14010KT 22/17 A2983 RMK A01 T02230167  RH  070%=      5-min Rain = 0
KSW1 200727Z 14010KT 22/17 A2983 RMK A01 T02230167  RH  070%=      5-min Rain = 0
KSW1 200728Z 14009KT 22/17 A2983 RMK A01 T02230167  RH  071%=      5-min Rain = 0
KSW1 200729Z 14010KT 22/17 A2983 RMK A01 T02230167  RH  071%=      5-min Rain = 0
KSW1 200730Z 14010KT 22/17 A2983 RMK A01 T02230167  RH  071%=      5-min Rain = 0
KSW1 200731Z 14010KT 22/17 A2983 RMK A01 T02230167  RH  070%=      5-min Rain = 0
KSW1 200732Z 14009KT 22/17 A2983 RMK A01 T02220166  RH  070%=      5-min Rain = 0
KSW1 200733Z 15009KT 22/17 A2983 RMK A01 T02230167  RH  070%=      5-min Rain = 0
KSW1 200734Z 14008KT 22/17 A2983 RMK A01 T02220166  RH  071%=      5-min Rain = 0
KSW1 200735Z 15009KT 22/17 A2983 RMK A01 T02230167  RH  071%=      5-min Rain = 0
KSW1 200736Z 15010KT 22/17 A2983 RMK A01 T02230167  RH  071%=      5-min Rain = 0
KSW1 200737Z 15009KT 22/17 A2983 RMK A01 T02230167  RH  071%=      5-min Rain = 0
KSW1 200738Z 14010KT 22/17 A2983 RMK A01 T02220167  RH  071%=      5-min Rain = 0
KSW1 200739Z 14009KT 22/17 A2983 RMK A01 T02230167  RH  071%=      5-min Rain = 0
KSW1 200740Z 14009KT 22/17 A2983 RMK A01 T02220167  RH  071%=      5-min Rain = 0
KSW1 200741Z 15010KT 22/17 A2983 RMK A01 T02220167  RH  071%=      5-min Rain = 0
KSW1 200742Z 15009KT 22/17 A2983 RMK A01 T02220168  RH  071%=      5-min Rain = 0
KSW1 200743Z 14010KT 22/17 A2983 RMK A01 T02220168  RH  071%=      5-min Rain = 0
KSW1 200744Z 15010KT 22/17 A2983 RMK A01 T02220167  RH  071%=      5-min Rain = 0
KSW1 200745Z 15010KT 22/17 A2983 RMK A01 T02220167  RH  071%=      5-min Rain = 0
KSW1 200746Z 15009KT 22/17 A2982 RMK A01 T02220168  RH  071%=      5-min Rain = 0
KSW1 200747Z 15011KT 22/17 A2982 RMK A01 T02220168  RH  071%=      5-min Rain = 0
KSW1 200748Z 14009KT 22/17 A2982 RMK A01 T02220168  RH  071%=      5-min Rain = 0
KSW1 200749Z 15010KT 22/17 A2982 RMK A01 T02220168  RH  071%=      5-min Rain = 0
KSW1 200750Z 14010KT 22/17 A2982 RMK A01 T02230169  RH  071%=      5-min Rain = 0
KSW1 200751Z 15010KT 22/17 A2982 RMK A01 T02230169  RH  072%=      5-min Rain = 0
KSW1 200752Z 14010KT 22/17 A2982 RMK A01 T02220169  RH  072%=      5-min Rain = 0
KSW1 200753Z 14011KT 22/17 A2982 RMK A01 T02230169  RH  072%=      5-min Rain = 0
KSW1 200754Z 14011KT 22/17 A2982 RMK A01 T02230169  RH  072%=      5-min Rain = 0
KSW1 200755Z 14010KT 22/17 A2982 RMK A01 T02220169  RH  072%=      5-min Rain = 0
KSW1 200756Z 15011KT 22/17 A2982 RMK A01 T02220169  RH  072%=      5-min Rain = 0
KSW1 200757Z 15010KT 22/17 A2982 RMK A01 T02220169  RH  072%=      5-min Rain = 0
KSW1 200758Z 15009KT 22/17 A2982 RMK A01 T02220170  RH  072%=      5-min Rain = 0
KSW1 200759Z 15011KT 22/17 A2982 RMK A01 T02220170  RH  072%=      5-min Rain = 0
KSW1 200800Z 15010KT 22/17 A2982 RMK A01 T02220170  RH  072%=      5-min Rain = 0
KSW1 200801Z 15011KT 22/17 A2982 RMK A01 T02220170  RH  072%=      5-min Rain = 0
KSW1 200802Z 15012KT 22/17 A2982 RMK A01 T02230170  RH  072%=      5-min Rain = 0
KSW1 200803Z 15012KT 22/17 A2982 RMK A01 T02230170  RH  072%=      5-min Rain = 0
KSW1 200804Z 15010KT 22/17 A2982 RMK A01 T02230169  RH  072%=      5-min Rain = 0
KSW1 200805Z 15011KT 22/17 A2982 RMK A01 T02240170  RH  071%=      5-min Rain = 0
KSW1 200806Z 15010KT 22/17 A2982 RMK A01 T02240170  RH  071%=      5-min Rain = 0
KSW1 200807Z 15011KT 22/17 A2982 RMK A01 T02230170  RH  072%=      5-min Rain = 0
KSW1 200808Z 15010KT 22/17 A2982 RMK A01 T02230169  RH  072%=      5-min Rain = 0
KSW1 200809Z 15011KT 22/17 A2982 RMK A01 T02240170  RH  071%=      5-min Rain = 0
KSW1 200810Z 14011KT 22/17 A2982 RMK A01 T02230169  RH  071%=      5-min Rain = 0
KSW1 200811Z 15011KT 22/17 A2981 RMK A01 T02240169  RH  071%=      5-min Rain = 0
KSW1 200812Z 15011KT 22/17 A2981 RMK A01 T02240169  RH  071%=      5-min Rain = 0
KSW1 200813Z 15011KT 22/17 A2981 RMK A01 T02240169  RH  071%=      5-min Rain = 0
KSW1 200814Z 15012KT 22/17 A2981 RMK A01 T02240169  RH  071%=      5-min Rain = 0
KSW1 200815Z 15011KT 22/17 A2981 RMK A01 T02240169  RH  071%=      5-min Rain = 0
KSW1 200816Z 15011KT 22/17 A2981 RMK A01 T02240170  RH  071%=      5-min Rain = 0
KSW1 200817Z 15011KT 22/17 A2981 RMK A01 T02240170  RH  071%=      5-min Rain = 0
KSW1 200818Z 15011KT 23/17 A2981 RMK A01 T02250170  RH  071%=      5-min Rain = 0
KSW1 200819Z 15011KT 22/17 A2981 RMK A01 T02240170  RH  071%=      5-min Rain = 0
KSW1 200820Z 15010KT 23/17 A2981 RMK A01 T02250170  RH  071%=      5-min Rain = 0
KSW1 200821Z 15011KT 22/17 A2981 RMK A01 T02240171  RH  071%=      5-min Rain = 0
KSW1 200822Z 15011KT 23/17 A2981 RMK A01 T02250171  RH  072%=      5-min Rain = 0
KSW1 200823Z 15011KT 23/17 A2981 RMK A01 T02250171  RH  072%=      5-min Rain = 0
KSW1 200824Z 15011KT 23/17 A2981 RMK A01 T02250172  RH  072%=      5-min Rain = 0
KSW1 200825Z 15010KT 23/17 A2981 RMK A01 T02250172  RH  072%=      5-min Rain = 0
KSW1 200826Z 15010KT 23/17 A2981 RMK A01 T02250172  RH  072%=      5-min Rain = 0
KSW1 200827Z 15010KT 23/17 A2981 RMK A01 T02260172  RH  072%=      5-min Rain = 0
KSW1 200828Z 15011KT 23/17 A2981 RMK A01 T02260173  RH  072%=      5-min Rain = 0
KSW1 200829Z 15010KT 23/17 A2981 RMK A01 T02260173  RH  072%=      5-min Rain = 0
KSW1 200830Z 15010KT 23/17 A2981 RMK A01 T02260173  RH  072%=      5-min Rain = 0
KSW1 200831Z 15010KT 23/17 A2981 RMK A01 T02260173  RH  072%=      5-min Rain = 0
KSW1 200832Z 15010KT 23/17 A2981 RMK A01 T02260173  RH  072%=      5-min Rain = 0
KSW1 200833Z 15011KT 23/17 A2981 RMK A01 T02260173  RH  072%=      5-min Rain = 0
KSW1 200834Z 15010KT 23/17 A2981 RMK A01 T02260174  RH  072%=      5-min Rain = 0
KSW1 200835Z 15010KT 23/17 A2981 RMK A01 T02260174  RH  072%=      5-min Rain = 0
KSW1 200836Z 15011KT 23/17 A2981 RMK A01 T02260174  RH  072%=      5-min Rain = 0
KSW1 200837Z 15010KT 23/17 A2981 RMK A01 T02260174  RH  072%=      5-min Rain = 0
KSW1 200838Z 15011KT 23/17 A2981 RMK A01 T02260174  RH  072%=      5-min Rain = 0
KSW1 200839Z 15010KT 23/17 A2981 RMK A01 T02260174  RH  072%=      5-min Rain = 0
KSW1 200840Z 15009KT 23/17 A2981 RMK A01 T02250174  RH  073%=      5-min Rain = 0
KSW1 200841Z 15010KT 23/17 A2981 RMK A01 T02250174  RH  073%=      5-min Rain = 0
KSW1 200842Z 15010KT 23/17 A2981 RMK A01 T02250174  RH  073%=      5-min Rain = 0
KSW1 200843Z 15010KT 23/17 A2981 RMK A01 T02250174  RH  073%=      5-min Rain = 0
KSW1 200844Z 16009KT 23/18 A2981 RMK A01 T02250175  RH  073%=      5-min Rain = 0
KSW1 200845Z 15010KT 23/18 A2981 RMK A01 T02250175  RH  073%=      5-min Rain = 0
KSW1 200846Z 15010KT 22/18 A2981 RMK A01 T02240175  RH  074%=      5-min Rain = 0
KSW1 200847Z 15010KT 22/18 A2981 RMK A01 T02240175  RH  074%=      5-min Rain = 0
KSW1 200848Z 15010KT 22/18 A2981 RMK A01 T02240175  RH  074%=      5-min Rain = 0
KSW1 200849Z 15011KT 22/18 A2981 RMK A01 T02240175  RH  074%=      5-min Rain = 0
KSW1 200850Z 15011KT 23/18 A2981 RMK A01 T02250176  RH  074%=      5-min Rain = 0
KSW1 200851Z 15012KT 23/18 A2981 RMK A01 T02250176  RH  074%=      5-min Rain = 0
KSW1 200852Z 15011KT 23/18 A2981 RMK A01 T02250176  RH  074%=      5-min Rain = 0
KSW1 200853Z 15011KT 23/18 A2981 RMK A01 T02260176  RH  074%=      5-min Rain = 0
KSW1 200854Z 15012KT 23/18 A2981 RMK A01 T02260177  RH  074%=      5-min Rain = 0
KSW1 200855Z 15012KT 23/18 A2981 RMK A01 T02260177  RH  074%=      5-min Rain = 0
KSW1 200856Z 15012KT 23/18 A2981 RMK A01 T02270177  RH  074%=      5-min Rain = 0
KSW1 200857Z 15011KT 23/18 A2981 RMK A01 T02270178  RH  074%=      5-min Rain = 0
KSW1 200858Z 15011KT 23/18 A2981 RMK A01 T02270178  RH  074%=      5-min Rain = 0
KSW1 200859Z 15011KT 23/18 A2981 RMK A01 T02270178  RH  074%=      5-min Rain = 0
KSW1 200900Z 15010KT 23/18 A2981 RMK A01 T02280178  RH  074%=      5-min Rain = 0
KSW1 200901Z 15011KT 23/18 A2981 RMK A01 T02280179  RH  074%=      5-min Rain = 0
KSW1 200902Z 15011KT 23/18 A2981 RMK A01 T02280179  RH  074%=      5-min Rain = 0
KSW1 200903Z 15010KT 23/18 A2981 RMK A01 T02280179  RH  074%=      5-min Rain = 0
KSW1 200904Z 15009KT 23/18 A2981 RMK A01 T02280179  RH  074%=      5-min Rain = 0
KSW1 200905Z 15010KT 23/18 A2981 RMK A01 T02280179  RH  074%=      5-min Rain = 0
KSW1 200906Z 15010KT 23/18 A2981 RMK A01 T02280179  RH  074%=      5-min Rain = 0
KSW1 200907Z 15009KT 23/18 A2981 RMK A01 T02280180  RH  074%=      5-min Rain = 0
KSW1 200908Z 15011KT 23/18 A2981 RMK A01 T02270179  RH  074%=      5-min Rain = 0
KSW1 200909Z 15010KT 23/18 A2981 RMK A01 T02270179  RH  074%=      5-min Rain = 0
KSW1 200910Z 15011KT 23/18 A2981 RMK A01 T02270180  RH  074%=      5-min Rain = 0
KSW1 200911Z 15011KT 23/18 A298 RMK A01 T02270180  RH  075%=      5-min Rain = 0
KSW1 200912Z 15011KT 23/18 A298 RMK A01 T02270180  RH  075%=      5-min Rain = 0
KSW1 200913Z 15011KT 23/18 A298 RMK A01 T02270180  RH  075%=      5-min Rain = 0
KSW1 200914Z 15010KT 23/18 A2981 RMK A01 T02270180  RH  075%=      5-min Rain = 0
KSW1 200915Z 15009KT 23/18 A2981 RMK A01 T02270181  RH  075%=      5-min Rain = 0
KSW1 200916Z 15010KT 23/18 A2981 RMK A01 T02270181  RH  075%=      5-min Rain = 0
KSW1 200917Z 15009KT 23/18 A2981 RMK A01 T02270181  RH  075%=      5-min Rain = 0
KSW1 200918Z 15009KT 23/18 A2981 RMK A01 T02270181  RH  075%=      5-min Rain = 0
KSW1 200919Z 15010KT 23/18 A2981 RMK A01 T02280181  RH  075%=      5-min Rain = 0
KSW1 200920Z 15010KT 23/18 A2981 RMK A01 T02280181  RH  075%=      5-min Rain = 0
KSW1 200921Z 15010KT 23/18 A2981 RMK A01 T02280182  RH  075%=      5-min Rain = 0
KSW1 200922Z 15010KT 23/18 A2981 RMK A01 T02280182  RH  075%=      5-min Rain = 0
KSW1 200923Z 15010KT 23/18 A2981 RMK A01 T02280182  RH  075%=      5-min Rain = 0
KSW1 200924Z 15011KT 23/18 A2981 RMK A01 T02280182  RH  076%=      5-min Rain = 0
KSW1 200925Z 15011KT 23/18 A2981 RMK A01 T02270182  RH  075%=      5-min Rain = 0
KSW1 200926Z 15011KT 23/18 A2981 RMK A01 T02280182  RH  075%=      5-min Rain = 0
KSW1 200927Z 15010KT 23/18 A2981 RMK A01 T02280182  RH  076%=      5-min Rain = 0
KSW1 200928Z 16011KT 23/18 A2981 RMK A01 T02270183  RH  076%=      5-min Rain = 0
KSW1 200929Z 15012G17KT 23/18 A2981 RMK A01 T02270183  RH  076%=      5-min Rain = 0
KSW1 200930Z 16013KT 23/18 A2981 RMK A01 T02270184  RH  076%=      5-min Rain = 0
KSW1 200931Z 15013KT 23/18 A2981 RMK A01 T02270184  RH  076%=      5-min Rain = 0
KSW1 200932Z 15012KT 23/18 A2981 RMK A01 T02270184  RH  076%=      5-min Rain = 0
KSW1 200933Z 15012KT 23/18 A2981 RMK A01 T02280184  RH  076%=      5-min Rain = 0
KSW1 200934Z 15013KT 23/19 A2981 RMK A01 T02280185  RH  076%=      5-min Rain = 0
KSW1 200935Z 16013KT 23/19 A2981 RMK A01 T02290185  RH  076%=      5-min Rain = 0
KSW1 200936Z 16011KT 23/19 A2981 RMK A01 T02290185  RH  076%=      5-min Rain = 0
KSW1 200937Z 16009KT 23/19 A2981 RMK A01 T02290185  RH  076%=      5-min Rain = 0
KSW1 200938Z 16011KT 23/19 A2981 RMK A01 T02290186  RH  076%=      5-min Rain = 0
KSW1 200939Z 15008KT 23/19 A2981 RMK A01 T02290186  RH  076%=      5-min Rain = 0
KSW1 200940Z 15011KT 23/19 A2981 RMK A01 T02290186  RH  076%=      5-min Rain = 0
KSW1 200941Z 15012KT 23/19 A2981 RMK A01 T02290186  RH  076%=      5-min Rain = 0
KSW1 200942Z 16012KT 23/19 A2981 RMK A01 T02290185  RH  076%=      5-min Rain = 0
KSW1 200943Z 15013KT 23/19 A2981 RMK A01 T02300185  RH  076%=      5-min Rain = 0
KSW1 200944Z 15013KT 23/19 A2981 RMK A01 T02310185  RH  076%=      5-min Rain = 0
KSW1 200945Z 15013KT 23/19 A2981 RMK A01 T02310185  RH  075%=      5-min Rain = 0
KSW1 200946Z 15014KT 23/19 A2981 RMK A01 T02310185  RH  075%=      5-min Rain = 0
KSW1 200947Z 15014KT 23/19 A2981 RMK A01 T02310185  RH  075%=      5-min Rain = 0
KSW1 200948Z 15014KT 23/19 A2981 RMK A01 T02310185  RH  075%=      5-min Rain = 0
KSW1 200949Z 15013KT 23/18 A2981 RMK A01 T02300184  RH  075%=      5-min Rain = 0
KSW1 200950Z 15012KT 23/18 A2981 RMK A01 T02300184  RH  075%=      5-min Rain = 0
KSW1 200951Z 15013KT 23/18 A2981 RMK A01 T02290184  RH  076%=      5-min Rain = 0
KSW1 200952Z 15012KT 23/18 A2981 RMK A01 T02290184  RH  076%=      5-min Rain = 0
KSW1 200953Z 15012KT 23/18 A2981 RMK A01 T02280184  RH  076%=      5-min Rain = 0
KSW1 200954Z 15011KT 23/18 A2981 RMK A01 T02280184  RH  076%=      5-min Rain = 0
KSW1 200955Z 15011KT 23/18 A2981 RMK A01 T02280184  RH  076%=      5-min Rain = 0
KSW1 200956Z 15013KT 23/18 A2981 RMK A01 T02270184  RH  077%=      5-min Rain = 0
KSW1 200957Z 15011KT 23/18 A2981 RMK A01 T02270184  RH  077%=      5-min Rain = 0
KSW1 200958Z 15013KT 23/18 A2981 RMK A01 T02270184  RH  077%=      5-min Rain = 0
KSW1 200959Z 15011KT 23/18 A2981 RMK A01 T02270184  RH  076%=      5-min Rain = 0
KSW1 201000Z 15010KT 23/18 A2981 RMK A01 T02270183  RH  076%=      5-min Rain = 0
KSW1 201001Z 15011KT 23/18 A2981 RMK A01 T02270183  RH  076%=      5-min Rain = 0
KSW1 201002Z 16011KT 23/18 A2981 RMK A01 T02270183  RH  076%=      5-min Rain = 0
KSW1 201003Z 15012KT 23/18 A2981 RMK A01 T02270183  RH  076%=      5-min Rain = 0
KSW1 201004Z 15010KT 23/18 A2981 RMK A01 T02270183  RH  076%=      5-min Rain = 0
KSW1 201005Z 15012KT 23/18 A2981 RMK A01 T02270183  RH  076%=      5-min Rain = 0
KSW1 201006Z 15014KT 23/18 A2981 RMK A01 T02270183  RH  076%=      5-min Rain = 0
KSW1 201007Z 15013KT 23/18 A2981 RMK A01 T02270182  RH  076%=      5-min Rain = 0
KSW1 201008Z 15012KT 23/18 A2981 RMK A01 T02260182  RH  076%=      5-min Rain = 0
KSW1 201009Z 15012KT 23/18 A2981 RMK A01 T02250182  RH  077%=      5-min Rain = 0
KSW1 201010Z 15012KT 23/18 A2981 RMK A01 T02250182  RH  077%=      5-min Rain = 0
KSW1 201011Z 15012KT 22/18 A2981 RMK A01 T02240183  RH  077%=      5-min Rain = 0
KSW1 201012Z 15012KT 23/18 A2981 RMK A01 T02250183  RH  077%=      5-min Rain = 0
KSW1 201013Z 15011KT 23/18 A2981 RMK A01 T02250183  RH  077%=      5-min Rain = 0
KSW1 201014Z 15010KT 23/18 A2981 RMK A01 T02260183  RH  077%=      5-min Rain = 0
KSW1 201015Z 15009KT 23/18 A2981 RMK A01 T02260183  RH  077%=      5-min Rain = 0
KSW1 201016Z 16009KT 23/18 A2981 RMK A01 T02260184  RH  077%=      5-min Rain = 0
KSW1 201017Z 16010KT 23/18 A2981 RMK A01 T02250184  RH  077%=      5-min Rain = 0
KSW1 201018Z 16009KT 23/18 A2981 RMK A01 T02250184  RH  077%=      5-min Rain = 0
KSW1 201019Z 16009KT 23/18 A2981 RMK A01 T02250184  RH  077%=      5-min Rain = 0
KSW1 201020Z 16010KT 23/18 A2981 RMK A01 T02250184  RH  078%=      5-min Rain = 0
KSW1 201021Z 15009KT 22/18 A2981 RMK A01 T02240184  RH  078%=      5-min Rain = 0
KSW1 201022Z 15009KT 22/18 A2981 RMK A01 T02240184  RH  078%=      5-min Rain = 0
KSW1 201023Z 15009KT 22/18 A2981 RMK A01 T02240184  RH  078%=      5-min Rain = 0
KSW1 201024Z 15010KT 22/18 A2981 RMK A01 T02240184  RH  078%=      5-min Rain = 0
KSW1 201025Z 15010KT 22/18 A2982 RMK A01 T02230184  RH  078%=      5-min Rain = 0
KSW1 201026Z 15011KT 22/18 A2982 RMK A01 T02240184  RH  078%=      5-min Rain = 0
KSW1 201027Z 16010KT 22/18 A2982 RMK A01 T02230184  RH  078%=      5-min Rain = 0
KSW1 201028Z 15009KT 22/18 A2982 RMK A01 T02230184  RH  078%=      5-min Rain = 0
KSW1 201029Z 15009KT 22/18 A2982 RMK A01 T02230184  RH  079%=      5-min Rain = 0
KSW1 201030Z 15009KT 22/18 A2982 RMK A01 T02230184  RH  079%=      5-min Rain = 0
KSW1 201031Z 15009KT 22/18 A2982 RMK A01 T02220184  RH  079%=      5-min Rain = 0
KSW1 201032Z 15009KT 22/18 A2982 RMK A01 T02220184  RH  079%=      5-min Rain = 0
KSW1 201033Z 16009KT 22/18 A2982 RMK A01 T02220184  RH  079%=      5-min Rain = 0
KSW1 201034Z 16011KT 22/18 A2982 RMK A01 T02220184  RH  079%=      5-min Rain = 0
KSW1 201035Z 15010KT 22/18 A2982 RMK A01 T02220184  RH  079%=      5-min Rain = 0
KSW1 201036Z 16011KT 22/18 A2982 RMK A01 T02220184  RH  079%=      5-min Rain = 0
KSW1 201037Z 15010KT 22/18 A2982 RMK A01 T02220184  RH  079%=      5-min Rain = 0
KSW1 201038Z 16010KT 22/18 A2982 RMK A01 T02220184  RH  079%=      5-min Rain = 0
KSW1 201039Z 16010KT 22/18 A2982 RMK A01 T02220184  RH  079%=      5-min Rain = 0
KSW1 201040Z 15011KT 22/18 A2982 RMK A01 T02220184  RH  079%=      5-min Rain = 0
KSW1 201041Z 15008KT 22/19 A2982 RMK A01 T02220185  RH  079%=      5-min Rain = 0
KSW1 201042Z 15008KT 22/18 A2982 RMK A01 T02220184  RH  079%=      5-min Rain = 0
KSW1 201043Z 16009KT 22/18 A2982 RMK A01 T02220184  RH  079%=      5-min Rain = 0
KSW1 201044Z 15008KT 22/19 A2982 RMK A01 T02220185  RH  079%=      5-min Rain = 0
KSW1 201045Z 16007KT 22/19 A2982 RMK A01 T02210185  RH  080%=      5-min Rain = 0
KSW1 201046Z 16008KT 22/19 A2982 RMK A01 T02210185  RH  080%=      5-min Rain = 0
KSW1 201047Z 16007KT 22/19 A2982 RMK A01 T02200185  RH  080%=      5-min Rain = 0
KSW1 201048Z 16007KT 22/19 A2982 RMK A01 T02200185  RH  080%=      5-min Rain = 0
KSW1 201049Z 16007KT 22/19 A2982 RMK A01 T02200185  RH  080%=      5-min Rain = 0
KSW1 201050Z 16007KT 22/19 A2982 RMK A01 T02200185  RH  081%=      5-min Rain = 0
KSW1 201051Z 16007KT 22/19 A2982 RMK A01 T02200186  RH  081%=      5-min Rain = 0
KSW1 201052Z 16006KT 22/19 A2982 RMK A01 T02200185  RH  081%=      5-min Rain = 0
KSW1 201053Z 16007KT 22/19 A2982 RMK A01 T02200185  RH  081%=      5-min Rain = 0
KSW1 201054Z 16006KT 22/19 A2982 RMK A01 T02200186  RH  081%=      5-min Rain = 0
KSW1 201055Z 16006KT 22/19 A2982 RMK A01 T02200185  RH  081%=      5-min Rain = 0
KSW1 201056Z 15006KT 22/19 A2982 RMK A01 T02210186  RH  081%=      5-min Rain = 0
KSW1 201057Z 16006KT 22/19 A2982 RMK A01 T02200186  RH  081%=      5-min Rain = 0
KSW1 201058Z 15007KT 22/19 A2982 RMK A01 T02200186  RH  081%=      5-min Rain = 0
KSW1 201059Z 15007KT 22/19 A2982 RMK A01 T02200186  RH  081%=      5-min Rain = 0
KSW1 201100Z 15007KT 22/19 A2982 RMK A01 T02190185  RH  081%=      5-min Rain = 0
KSW1 201101Z 16007KT 22/19 A2982 RMK A01 T02190185  RH  081%=      5-min Rain = 0
KSW1 201102Z 16008KT 22/19 A2982 RMK A01 T02180185  RH  082%=      5-min Rain = 0
KSW1 201103Z 15007KT 22/19 A2982 RMK A01 T02180186  RH  082%=      5-min Rain = 0
KSW1 201104Z 15007KT 22/19 A2982 RMK A01 T02180185  RH  082%=      5-min Rain = 0
KSW1 201105Z 15007KT 22/19 A2982 RMK A01 T02180185  RH  082%=      5-min Rain = 0
KSW1 201106Z 16006KT 22/19 A2982 RMK A01 T02190186  RH  082%=      5-min Rain = 0
KSW1 201107Z 16007KT 22/19 A2982 RMK A01 T02190186  RH  081%=      5-min Rain = 0
KSW1 201108Z 16006KT 22/19 A2982 RMK A01 T02190186  RH  081%=      5-min Rain = 0
KSW1 201109Z 16006KT 22/19 A2982 RMK A01 T02190186  RH  082%=      5-min Rain = 0
KSW1 201110Z 16006KT 22/19 A2982 RMK A01 T02190186  RH  082%=      5-min Rain = 0
KSW1 201111Z 16006KT 22/19 A2982 RMK A01 T02190186  RH  082%=      5-min Rain = 0
KSW1 201112Z 16007KT 22/19 A2982 RMK A01 T02190186  RH  082%=      5-min Rain = 0
KSW1 201113Z 16007KT 22/19 A2982 RMK A01 T02190186  RH  082%=      5-min Rain = 0
KSW1 201114Z 16008KT 22/19 A2982 RMK A01 T02190186  RH  082%=      5-min Rain = 0
KSW1 201115Z 17008KT 22/19 A2982 RMK A01 T02200187  RH  081%=      5-min Rain = 0
KSW1 201116Z 17008KT 22/19 A2982 RMK A01 T02230187  RH  081%=      5-min Rain = 0
KSW1 201117Z 17008KT 22/19 A2982 RMK A01 T02240187  RH  080%=      5-min Rain = 0
KSW1 201118Z 17007KT 23/19 A2982 RMK A01 T02250188  RH  080%=      5-min Rain = 0
KSW1 201119Z 17008KT 23/19 A2982 RMK A01 T02260188  RH  079%=      5-min Rain = 0
KSW1 201120Z 17009KT 23/19 A2982 RMK A01 T02280188  RH  078%=      5-min Rain = 0
KSW1 201121Z 17009KT 23/19 A2982 RMK A01 T02290188  RH  077%=      5-min Rain = 0
KSW1 201122Z 17010KT 23/19 A2982 RMK A01 T02310188  RH  077%=      5-min Rain = 0
KSW1 201123Z 17009KT 23/19 A2982 RMK A01 T02320188  RH  076%=      5-min Rain = 0
KSW1 201124Z 18008KT 23/19 A2982 RMK A01 T02330188  RH  076%=      5-min Rain = 0
KSW1 201125Z 18010KT 23/19 A2982 RMK A01 T02330188  RH  076%=      5-min Rain = 0
KSW1 201126Z 18009KT 23/19 A2982 RMK A01 T02330187  RH  076%=      5-min Rain = 0
KSW1 201127Z 18009KT 23/19 A2982 RMK A01 T02330187  RH  075%=      5-min Rain = 0
KSW1 201128Z 18011KT 23/19 A2982 RMK A01 T02340187  RH  075%=      5-min Rain = 0
KSW1 201129Z 18010KT 23/19 A2982 RMK A01 T02340187  RH  075%=      5-min Rain = 0
KSW1 201130Z 18009KT 23/19 A2982 RMK A01 T02340186  RH  074%=      5-min Rain = 0
KSW1 201131Z 18010KT 24/19 A2982 RMK A01 T02350187  RH  074%=      5-min Rain = 0
KSW1 201132Z 18009KT 23/19 A2982 RMK A01 T02340186  RH  075%=      5-min Rain = 0
KSW1 201133Z 18009KT 23/19 A2981 RMK A01 T02330186  RH  075%=      5-min Rain = 0
KSW1 201134Z 18008KT 23/19 A2981 RMK A01 T02330186  RH  075%=      5-min Rain = 0
KSW1 201135Z 18009KT 23/19 A2981 RMK A01 T02330186  RH  075%=      5-min Rain = 0
KSW1 201136Z 18009KT 23/19 A2982 RMK A01 T02320186  RH  075%=      5-min Rain = 0
KSW1 201137Z 19009KT 23/19 A2982 RMK A01 T02320186  RH  076%=      5-min Rain = 0
KSW1 201138Z 19008KT 23/19 A2982 RMK A01 T02310186  RH  076%=      5-min Rain = 0
KSW1 201139Z 18009KT 23/19 A2982 RMK A01 T02310186  RH  076%=      5-min Rain = 0
KSW1 201140Z 18007KT 23/19 A2982 RMK A01 T02310186  RH  076%=      5-min Rain = 0
KSW1 201141Z 19009KT 23/19 A2982 RMK A01 T02300186  RH  076%=      5-min Rain = 0
KSW1 201142Z 18008KT 23/19 A2982 RMK A01 T02290186  RH  076%=      5-min Rain = 0
KSW1 201143Z 19007KT 23/19 A2982 RMK A01 T02290186  RH  076%=      5-min Rain = 0
KSW1 201144Z 18007KT 23/19 A2982 RMK A01 T02290186  RH  077%=      5-min Rain = 0
KSW1 201145Z 19007KT 23/19 A2982 RMK A01 T02280186  RH  077%=      5-min Rain = 0
KSW1 201146Z 19008KT 23/19 A2982 RMK A01 T02280186  RH  077%=      5-min Rain = 0
KSW1 201147Z 19007KT 23/19 A2982 RMK A01 T02280186  RH  077%=      5-min Rain = 0
KSW1 201148Z 19007KT 23/19 A2982 RMK A01 T02290185  RH  077%=      5-min Rain = 0
KSW1 201149Z 19007KT 23/19 A2982 RMK A01 T02290185  RH  077%=      5-min Rain = 0
KSW1 201150Z 18007KT 23/19 A2982 RMK A01 T02290186  RH  077%=      5-min Rain = 0
KSW1 201151Z 18006KT 23/19 A2982 RMK A01 T02280185  RH  077%=      5-min Rain = 0
KSW1 201152Z 19007KT 23/19 A2982 RMK A01 T02280185  RH  077%=      5-min Rain = 0
KSW1 201153Z 18006KT 23/19 A2982 RMK A01 T02280186  RH  077%=      5-min Rain = 0
KSW1 201154Z 18007KT 23/19 A2982 RMK A01 T02270185  RH  077%=      5-min Rain = 0
KSW1 201155Z 18007KT 23/19 A2982 RMK A01 T02270185  RH  077%=      5-min Rain = 0
KSW1 201156Z 18006KT 23/19 A2982 RMK A01 T02270185  RH  077%=      5-min Rain = 0
KSW1 201157Z 18006KT 23/19 A2982 RMK A01 T02280185  RH  077%=      5-min Rain = 0
KSW1 201158Z 18007KT 23/19 A2982 RMK A01 T02280185  RH  077%=      5-min Rain = 0
KSW1 201159Z 19007KT 23/18 A2982 RMK A01 T02280184  RH  076%=      5-min Rain = 0
KSW1 201200Z 19007KT 23/18 A2982 RMK A01 T02290184  RH  076%=      5-min Rain = 0
KSW1 201201Z 19008KT 23/18 A2982 RMK A01 T02290184  RH  076%=      5-min Rain = 0
KSW1 201202Z 19008KT 23/18 A2982 RMK A01 T02300184  RH  075%=      5-min Rain = 0
KSW1 201203Z 18007KT 23/18 A2982 RMK A01 T02310184  RH  075%=      5-min Rain = 0
KSW1 201204Z 19008KT 23/18 A2982 RMK A01 T02310184  RH  075%=      5-min Rain = 0
KSW1 201205Z 18009KT 23/18 A2982 RMK A01 T02320184  RH  075%=      5-min Rain = 0
KSW1 201206Z 19007KT 23/18 A2982 RMK A01 T02320184  RH  074%=      5-min Rain = 0
KSW1 201207Z 18007KT 23/18 A2982 RMK A01 T02330184  RH  074%=      5-min Rain = 0
KSW1 201208Z 19007KT 23/18 A2982 RMK A01 T02340184  RH  073%=      5-min Rain = 0
KSW1 201209Z 18008KT 23/18 A2982 RMK A01 T02340184  RH  073%=      5-min Rain = 0
KSW1 201210Z 18008KT 24/18 A2982 RMK A01 T02350183  RH  073%=      5-min Rain = 0
KSW1 201211Z 18008KT 24/18 A2982 RMK A01 T02360183  RH  072%=      5-min Rain = 0
KSW1 201212Z 18008KT 24/18 A2982 RMK A01 T02360183  RH  072%=      5-min Rain = 0
KSW1 201213Z 18007KT 24/18 A2982 RMK A01 T02370183  RH  072%=      5-min Rain = 0
KSW1 201214Z 18008KT 24/18 A2982 RMK A01 T02370183  RH  071%=      5-min Rain = 0
KSW1 201215Z 18008KT 24/18 A2982 RMK A01 T02380183  RH  071%=      5-min Rain = 0
KSW1 201216Z 18007KT 24/18 A2982 RMK A01 T02380183  RH  071%=      5-min Rain = 0
KSW1 201217Z 18007KT 24/18 A2982 RMK A01 T02380183  RH  071%=      5-min Rain = 0
KSW1 201218Z 18007KT 24/18 A2982 RMK A01 T02380183  RH  071%=      5-min Rain = 0
KSW1 201219Z 18007KT 24/18 A2982 RMK A01 T02390182  RH  071%=      5-min Rain = 0
KSW1 201220Z 18008KT 24/18 A2982 RMK A01 T02400182  RH  070%=      5-min Rain = 0
KSW1 201221Z 18008KT 24/18 A2982 RMK A01 T02400182  RH  070%=      5-min Rain = 0
KSW1 201222Z 17007KT 24/18 A2983 RMK A01 T02410182  RH  069%=      5-min Rain = 0
KSW1 201223Z 17006KT 24/18 A2983 RMK A01 T02420182  RH  069%=      5-min Rain = 0
KSW1 201224Z 17006KT 24/18 A2983 RMK A01 T02410182  RH  069%=      5-min Rain = 0
KSW1 201225Z 16005KT 24/18 A2983 RMK A01 T02420182  RH  069%=      5-min Rain = 0
KSW1 201226Z 17007KT 24/18 A2983 RMK A01 T02420182  RH  069%=      5-min Rain = 0
KSW1 201227Z 17006KT 24/18 A2983 RMK A01 T02420182  RH  069%=      5-min Rain = 0
KSW1 201228Z 17008KT 24/18 A2983 RMK A01 T02420182  RH  069%=      5-min Rain = 0
KSW1 201229Z 17007KT 24/18 A2983 RMK A01 T02420181  RH  069%=      5-min Rain = 0
KSW1 201230Z 17008KT 24/18 A2983 RMK A01 T02420181  RH  069%=      5-min Rain = 0
KSW1 201231Z 17008KT 24/18 A2983 RMK A01 T02430181  RH  068%=      5-min Rain = 0
KSW1 201232Z 18007KT 24/18 A2983 RMK A01 T02440181  RH  068%=      5-min Rain = 0
KSW1 201233Z 18008KT 25/18 A2983 RMK A01 T02450181  RH  068%=      5-min Rain = 0
KSW1 201234Z 18008KT 25/18 A2983 RMK A01 T02450180  RH  067%=      5-min Rain = 0
KSW1 201235Z 18008KT 25/18 A2983 RMK A01 T02460181  RH  067%=      5-min Rain = 0
KSW1 201236Z 18009KT 25/18 A2983 RMK A01 T02470180  RH  067%=      5-min Rain = 0
KSW1 201237Z 19009KT 25/18 A2983 RMK A01 T02480181  RH  066%=      5-min Rain = 0
KSW1 201238Z 19009KT 25/18 A2983 RMK A01 T02480180  RH  066%=      5-min Rain = 0
KSW1 201239Z 19007KT 25/18 A2983 RMK A01 T02480181  RH  066%=      5-min Rain = 0
KSW1 201240Z 19008KT 25/18 A2983 RMK A01 T02480181  RH  066%=      5-min Rain = 0
KSW1 201241Z 19007KT 25/18 A2983 RMK A01 T02480182  RH  067%=      5-min Rain = 0
KSW1 201242Z 19007KT 25/18 A2983 RMK A01 T02490182  RH  067%=      5-min Rain = 0
KSW1 201243Z 20007KT 25/18 A2983 RMK A01 T02480182  RH  067%=      5-min Rain = 0
KSW1 201244Z 20006KT 25/18 A2983 RMK A01 T02480183  RH  067%=      5-min Rain = 0
KSW1 201245Z 20006KT 25/18 A2983 RMK A01 T02470183  RH  067%=      5-min Rain = 0
KSW1 201246Z 20007KT 25/18 A2983 RMK A01 T02470182  RH  067%=      5-min Rain = 0
KSW1 201247Z 20006KT 25/18 A2983 RMK A01 T02470182  RH  067%=      5-min Rain = 0
KSW1 201248Z 20006KT 25/18 A2983 RMK A01 T02470182  RH  067%=      5-min Rain = 0
KSW1 201249Z 20007KT 25/18 A2983 RMK A01 T02480182  RH  067%=      5-min Rain = 0
KSW1 201250Z 20006KT 25/18 A2983 RMK A01 T02480181  RH  066%=      5-min Rain = 0
KSW1 201251Z 20006KT 25/18 A2983 RMK A01 T02490181  RH  066%=      5-min Rain = 0
KSW1 201252Z 19007KT 25/18 A2983 RMK A01 T02490181  RH  066%=      5-min Rain = 0
KSW1 201253Z 20007KT 25/18 A2983 RMK A01 T02510180  RH  065%=      5-min Rain = 0
KSW1 201254Z 19007KT 25/18 A2983 RMK A01 T02510180  RH  064%=      5-min Rain = 0
KSW1 201255Z 20007KT 25/18 A2983 RMK A01 T02520179  RH  064%=      5-min Rain = 0
KSW1 201256Z 20007KT 25/18 A2983 RMK A01 T02530180  RH  064%=      5-min Rain = 0
KSW1 201257Z 19006KT 25/18 A2983 RMK A01 T02530180  RH  064%=      5-min Rain = 0
KSW1 201258Z 19004KT 25/18 A2983 RMK A01 T02530181  RH  064%=      5-min Rain = 0
KSW1 201259Z 19007KT 25/18 A2983 RMK A01 T02540181  RH  064%=      5-min Rain = 0
KSW1 201300Z 19006KT 26/18 A2983 RMK A01 T02550180  RH  063%=      5-min Rain = 0
KSW1 201301Z 19007KT 26/18 A2983 RMK A01 T02550180  RH  063%=      5-min Rain = 0
KSW1 201302Z 19006KT 26/18 A2983 RMK A01 T02560181  RH  063%=      5-min Rain = 0
KSW1 201303Z 19007KT 26/18 A2983 RMK A01 T02560180  RH  063%=      5-min Rain = 0
KSW1 201304Z 20007KT 26/18 A2983 RMK A01 T02560180  RH  063%=      5-min Rain = 0
KSW1 201305Z 20005KT 26/18 A2983 RMK A01 T02570181  RH  063%=      5-min Rain = 0
KSW1 201306Z 19006KT 26/18 A2983 RMK A01 T02570181  RH  063%=      5-min Rain = 0
KSW1 201307Z 20005KT 26/18 A2983 RMK A01 T02570181  RH  063%=      5-min Rain = 0
KSW1 201308Z 19006KT 26/18 A2983 RMK A01 T02580180  RH  062%=      5-min Rain = 0
KSW1 201309Z 21006KT 26/18 A2983 RMK A01 T02580181  RH  062%=      5-min Rain = 0
KSW1 201310Z 20008KT 26/18 A2983 RMK A01 T02590180  RH  062%=      5-min Rain = 0
KSW1 201311Z 20007KT 26/18 A2983 RMK A01 T02590180  RH  062%=      5-min Rain = 0
KSW1 201312Z 19007KT 26/18 A2983 RMK A01 T02590181  RH  062%=      5-min Rain = 0
KSW1 201313Z 20007KT 26/18 A2983 RMK A01 T02600181  RH  061%=      5-min Rain = 0
KSW1 201314Z 20007KT 26/18 A2983 RMK A01 T02600180  RH  061%=      5-min Rain = 0
KSW1 201315Z 20007KT 26/18 A2983 RMK A01 T02610180  RH  061%=      5-min Rain = 0
KSW1 201316Z 20008KT 26/18 A2983 RMK A01 T02610180  RH  061%=      5-min Rain = 0
KSW1 201317Z 20006KT 26/18 A2983 RMK A01 T02610178  RH  060%=      5-min Rain = 0
KSW1 201318Z 20007KT 26/18 A2983 RMK A01 T02620180  RH  061%=      5-min Rain = 0
KSW1 201319Z 19006KT 26/18 A2983 RMK A01 T02630181  RH  060%=      5-min Rain = 0
KSW1 201320Z 19006KT 26/18 A2983 RMK A01 T02640181  RH  060%=      5-min Rain = 0
KSW1 201321Z 20009KT 26/18 A2983 RMK A01 T02640179  RH  060%=      5-min Rain = 0
KSW1 201322Z 19007KT 27/18 A2983 RMK A01 T02650180  RH  060%=      5-min Rain = 0
KSW1 201323Z 19007KT 27/18 A2983 RMK A01 T02650181  RH  060%=      5-min Rain = 0
KSW1 201324Z 19007KT 27/18 A2983 RMK A01 T02660181  RH  060%=      5-min Rain = 0
KSW1 201325Z 20007KT 27/18 A2983 RMK A01 T02660179  RH  059%=      5-min Rain = 0
KSW1 201326Z 19007KT 27/18 A2983 RMK A01 T02660179  RH  059%=      5-min Rain = 0
KSW1 201327Z 20007KT 27/18 A2983 RMK A01 T02660178  RH  059%=      5-min Rain = 0
KSW1 201328Z 20005KT 27/18 A2984 RMK A01 T02670181  RH  059%=      5-min Rain = 0
KSW1 201329Z 20005KT 27/18 A2984 RMK A01 T02680181  RH  059%=      5-min Rain = 0
KSW1 201330Z 21005KT 27/18 A2984 RMK A01 T02680180  RH  058%=      5-min Rain = 0
KSW1 201331Z 20006KT 27/18 A2984 RMK A01 T02690180  RH  058%=      5-min Rain = 0
KSW1 201332Z 20004KT 27/18 A2984 RMK A01 T02690181  RH  058%=      5-min Rain = 0
KSW1 201333Z 21004KT 27/18 A2984 RMK A01 T02700182  RH  058%=      5-min Rain = 0
KSW1 201334Z 20005KT 27/18 A2984 RMK A01 T02710182  RH  058%=      5-min Rain = 0
KSW1 201335Z 20005KT 27/18 A2984 RMK A01 T02710181  RH  058%=      5-min Rain = 0
KSW1 201336Z 20005KT 27/18 A2984 RMK A01 T02710180  RH  057%=      5-min Rain = 0
KSW1 201337Z 20004KT 27/18 A2984 RMK A01 T02720181  RH  058%=      5-min Rain = 0
KSW1 201338Z 20005KT 27/18 A2984 RMK A01 T02720181  RH  057%=      5-min Rain = 0
KSW1 201339Z 19004KT 27/18 A2984 RMK A01 T02720180  RH  057%=      5-min Rain = 0
KSW1 201340Z 20004KT 27/18 A2984 RMK A01 T02730183  RH  058%=      5-min Rain = 0
KSW1 201341Z 20005KT 27/18 A2984 RMK A01 T02740181  RH  057%=      5-min Rain = 0
KSW1 201342Z 18006KT 28/18 A2984 RMK A01 T02750182  RH  057%=      5-min Rain = 0
KSW1 201343Z 18006KT 28/18 A2984 RMK A01 T02760181  RH  056%=      5-min Rain = 0
KSW1 201344Z 20005KT 28/18 A2984 RMK A01 T02760182  RH  057%=      5-min Rain = 0
KSW1 201345Z 19005KT 28/18 A2984 RMK A01 T02760180  RH  056%=      5-min Rain = 0
KSW1 201346Z 19005KT 28/18 A2984 RMK A01 T02760182  RH  056%=      5-min Rain = 0
KSW1 201347Z 20006KT 28/18 A2984 RMK A01 T02770182  RH  056%=      5-min Rain = 0
KSW1 201348Z 19005KT 28/18 A2984 RMK A01 T02770183  RH  056%=      5-min Rain = 0
KSW1 201349Z 19007KT 28/18 A2984 RMK A01 T02770181  RH  056%=      5-min Rain = 0
KSW1 201350Z 20006KT 28/18 A2984 RMK A01 T02780182  RH  056%=      5-min Rain = 0
KSW1 201351Z 20008KT 28/18 A2984 RMK A01 T02780181  RH  056%=      5-min Rain = 0
KSW1 201352Z 20007KT 28/18 A2984 RMK A01 T02780181  RH  056%=      5-min Rain = 0
KSW1 201353Z 19006KT 28/18 A2984 RMK A01 T02770181  RH  056%=      5-min Rain = 0
KSW1 201354Z 20005KT 28/18 A2984 RMK A01 T02770181  RH  056%=      5-min Rain = 0
KSW1 201355Z 21005KT 28/18 A2984 RMK A01 T02780183  RH  056%=      5-min Rain = 0
KSW1 201356Z 20006KT 28/18 A2984 RMK A01 T02800182  RH  055%=      5-min Rain = 0
KSW1 201357Z 21007KT 28/18 A2984 RMK A01 T02800177  RH  053%=      5-min Rain = 0
KSW1 201358Z 21006KT 28/18 A2984 RMK A01 T02810180  RH  054%=      5-min Rain = 0
KSW1 201359Z 23006KT 28/18 A2984 RMK A01 T02810181  RH  054%=      5-min Rain = 0
KSW1 201400Z 22006KT 28/18 A2984 RMK A01 T02810177  RH  053%=      5-min Rain = 0
KSW1 201401Z 21005KT 28/18 A2984 RMK A01 T02820179  RH  053%=      5-min Rain = 0
KSW1 201402Z 21005KT 28/18 A2984 RMK A01 T02830179  RH  053%=      5-min Rain = 0
KSW1 201403Z 21005KT 28/18 A2984 RMK A01 T02830180  RH  053%=      5-min Rain = 0
KSW1 201404Z 22004KT 28/18 A2984 RMK A01 T02840182  RH  054%=      5-min Rain = 0
KSW1 201405Z 22004KT 29/18 A2984 RMK A01 T02850178  RH  052%=      5-min Rain = 0
KSW1 201406Z 22005KT 29/18 A2984 RMK A01 T02850176  RH  052%=      5-min Rain = 0
KSW1 201407Z 22005KT 29/18 A2984 RMK A01 T02860178  RH  052%=      5-min Rain = 0
KSW1 201408Z 22006KT 29/18 A2984 RMK A01 T02870176  RH  051%=      5-min Rain = 0
KSW1 201409Z 21005KT 29/18 A2984 RMK A01 T02880177  RH  051%=      5-min Rain = 0
KSW1 201410Z 21006KT 29/17 A2984 RMK A01 T02880169  RH  048%=      5-min Rain = 0
KSW1 201411Z 21006KT 29/17 A2984 RMK A01 T02890174  RH  050%=      5-min Rain = 0
KSW1 201412Z 22007KT 29/17 A2984 RMK A01 T02900171  RH  049%=      5-min Rain = 0
KSW1 201413Z 22007KT 29/17 A2984 RMK A01 T02900173  RH  049%=      5-min Rain = 0
KSW1 201414Z 22006KT 29/17 A2984 RMK A01 T02900174  RH  049%=      5-min Rain = 0
KSW1 201415Z 22004KT 29/18 A2984 RMK A01 T02910175  RH  050%=      5-min Rain = 0
KSW1 201416Z 23005KT 29/18 A2984 RMK A01 T02920175  RH  049%=      5-min Rain = 0
KSW1 201417Z 21005KT 29/17 A2984 RMK A01 T02920172  RH  048%=      5-min Rain = 0
KSW1 201418Z 22006KT 29/17 A2984 RMK A01 T02930174  RH  049%=      5-min Rain = 0
KSW1 201419Z 23007KT 29/17 A2984 RMK A01 T02940165  RH  046%=      5-min Rain = 0
KSW1 201420Z 22007KT 29/17 A2984 RMK A01 T02940169  RH  047%=      5-min Rain = 0
KSW1 201421Z 22006KT 30/17 A2984 RMK A01 T02950169  RH  047%=      5-min Rain = 0
KSW1 201422Z 21006KT 30/17 A2984 RMK A01 T02950170  RH  047%=      5-min Rain = 0
KSW1 201423Z 23006KT 30/17 A2984 RMK A01 T02960172  RH  047%=      5-min Rain = 0
KSW1 201424Z 22007KT 30/17 A2984 RMK A01 T02970170  RH  046%=      5-min Rain = 0
KSW1 201425Z 23006KT 30/17 A2984 RMK A01 T02970172  RH  047%=      5-min Rain = 0
KSW1 201426Z 23006KT 30/17 A2984 RMK A01 T02970169  RH  046%=      5-min Rain = 0
KSW1 201427Z 22006KT 30/17 A2984 RMK A01 T02970168  RH  046%=      5-min Rain = 0
KSW1 201428Z 21006KT 30/17 A2984 RMK A01 T02980169  RH  046%=      5-min Rain = 0
KSW1 201429Z 21009KT 30/17 A2984 RMK A01 T02990166  RH  045%=      5-min Rain = 0
KSW1 201430Z 22008KT 30/16 A2984 RMK A01 T02990163  RH  044%=      5-min Rain = 0
KSW1 201431Z 21006KT 30/16 A2984 RMK A01 T02990164  RH  044%=      5-min Rain = 0
KSW1 201432Z 21007KT 30/17 A2984 RMK A01 T03000167  RH  045%=      5-min Rain = 0
KSW1 201433Z 21008KT 30/16 A2984 RMK A01 T03010164  RH  044%=      5-min Rain = 0
KSW1 201434Z 22008G13KT 30/17 A2984 RMK A01 T03010165  RH  044%=      5-min Rain = 0
KSW1 201435Z 22010KT 30/16 A2984 RMK A01 T03020160  RH  042%=      5-min Rain = 0
KSW1 201436Z 22011KT 30/16 A2984 RMK A01 T03010156  RH  042%=      5-min Rain = 0
KSW1 201437Z 22009KT 30/16 A2984 RMK A01 T03000158  RH  042%=      5-min Rain = 0
KSW1 201438Z 21009KT 30/16 A2984 RMK A01 T03000156  RH  042%=      5-min Rain = 0
KSW1 201439Z 22007KT 30/16 A2984 RMK A01 T03000161  RH  043%=      5-min Rain = 0
KSW1 201440Z 22008KT 30/16 A2984 RMK A01 T03010161  RH  043%=      5-min Rain = 0
KSW1 201441Z 23007KT 30/16 A2984 RMK A01 T03010159  RH  042%=      5-min Rain = 0
KSW1 201442Z 21006KT 30/16 A2984 RMK A01 T03020161  RH  043%=      5-min Rain = 0
KSW1 201443Z 21007KT 30/16 A2984 RMK A01 T03030163  RH  043%=      5-min Rain = 0
KSW1 201444Z 21009KT 30/16 A2984 RMK A01 T03040156  RH  041%=      5-min Rain = 0
KSW1 201445Z 20006KT 31/15 A2984 RMK A01 T03050154  RH  040%=      5-min Rain = 0
KSW1 201446Z 21009KT 31/16 A2984 RMK A01 T03050159  RH  041%=      5-min Rain = 0
KSW1 201447Z 20009KT 31/16 A2984 RMK A01 T03070155  RH  040%=      5-min Rain = 0
KSW1 201448Z 22008KT 31/16 A2984 RMK A01 T03070155  RH  040%=      5-min Rain = 0
KSW1 201449Z 23008KT 31/16 A2984 RMK A01 T03070157  RH  041%=      5-min Rain = 0
KSW1 201450Z 23008KT 31/16 A2984 RMK A01 T03060157  RH  041%=      5-min Rain = 0
KSW1 201451Z 23007KT 31/16 A2984 RMK A01 T03060158  RH  041%=      5-min Rain = 0
KSW1 201452Z 22009KT 31/15 A2984 RMK A01 T03060153  RH  040%=      5-min Rain = 0
KSW1 201453Z 23007KT 31/15 A2984 RMK A01 T03060152  RH  039%=      5-min Rain = 0
KSW1 201454Z 23005KT 31/16 A2984 RMK A01 T03060158  RH  041%=      5-min Rain = 0
KSW1 201455Z 22007KT 31/16 A2984 RMK A01 T03070158  RH  041%=      5-min Rain = 0
KSW1 201456Z 21009KT 31/15 A2984 RMK A01 T03080154  RH  039%=      5-min Rain = 0
KSW1 201457Z 22008KT 31/15 A2984 RMK A01 T03090154  RH  039%=      5-min Rain = 0
KSW1 201458Z 22008KT 31/16 A2984 RMK A01 T03090155  RH  039%=      5-min Rain = 0
KSW1 201459Z 21010KT 31/15 A2984 RMK A01 T03100151  RH  038%=      5-min Rain = 0
KSW1 201500Z 21010KT 31/15 A2984 RMK A01 T03090151  RH  038%=      5-min Rain = 0
KSW1 201501Z 21008KT 31/15 A2984 RMK A01 T03090151  RH  038%=      5-min Rain = 0
KSW1 201502Z 22009KT 31/15 A2984 RMK A01 T03100150  RH  038%=      5-min Rain = 0
KSW1 201503Z 22009KT 31/15 A2984 RMK A01 T03100147  RH  037%=      5-min Rain = 0
KSW1 201504Z 23010KT 31/15 A2984 RMK A01 T03100145  RH  037%=      5-min Rain = 0
KSW1 201505Z 22009KT 31/14 A2984 RMK A01 T03100143  RH  036%=      5-min Rain = 0
KSW1 201506Z 23010KT 31/15 A2984 RMK A01 T03110146  RH  037%=      5-min Rain = 0
KSW1 201507Z 23008KT 31/15 A2984 RMK A01 T03110146  RH  037%=      5-min Rain = 0
KSW1 201508Z 23007KT 31/15 A2984 RMK A01 T03120151  RH  038%=      5-min Rain = 0
KSW1 201509Z 21006KT 31/16 A2984 RMK A01 T03130156  RH  039%=      5-min Rain = 0
KSW1 201510Z 21008KT 31/16 A2984 RMK A01 T03140156  RH  039%=      5-min Rain = 0
KSW1 201511Z 20008KT 32/15 A2984 RMK A01 T03150151  RH  037%=      5-min Rain = 0
KSW1 201512Z 20007KT 32/15 A2984 RMK A01 T03160149  RH  037%=      5-min Rain = 0
KSW1 201513Z 20008KT 32/15 A2984 RMK A01 T03160152  RH  037%=      5-min Rain = 0
KSW1 201514Z 21009KT 32/15 A2984 RMK A01 T03170152  RH  037%=      5-min Rain = 0
KSW1 201515Z 22009KT 32/15 A2984 RMK A01 T03180149  RH  036%=      5-min Rain = 0
KSW1 201516Z 21007KT 32/15 A2984 RMK A01 T03160150  RH  037%=      5-min Rain = 0
KSW1 201517Z 22007KT 32/15 A2984 RMK A01 T03160149  RH  036%=      5-min Rain = 0
KSW1 201518Z 21008KT 32/15 A2984 RMK A01 T03170150  RH  036%=      5-min Rain = 0
KSW1 201519Z 21008KT 32/15 A2984 RMK A01 T03180146  RH  035%=      5-min Rain = 0
KSW1 201520Z 22008KT 32/15 A2984 RMK A01 T03190148  RH  036%=      5-min Rain = 0
KSW1 201521Z 22009KT 32/14 A2985 RMK A01 T03190144  RH  035%=      5-min Rain = 0
KSW1 201522Z 22006KT 32/15 A2985 RMK A01 T03180150  RH  036%=      5-min Rain = 0
KSW1 201523Z 22008KT 32/15 A2985 RMK A01 T03180150  RH  036%=      5-min Rain = 0
KSW1 201524Z 22009KT 32/15 A2985 RMK A01 T03190147  RH  035%=      5-min Rain = 0
KSW1 201525Z 21008KT 32/15 A2985 RMK A01 T03190147  RH  035%=      5-min Rain = 0
KSW1 201526Z 22008KT 32/15 A2985 RMK A01 T03200145  RH  035%=      5-min Rain = 0
KSW1 201527Z 22007KT 32/15 A2985 RMK A01 T03210149  RH  036%=      5-min Rain = 0
KSW1 201528Z 22006KT 32/15 A2985 RMK A01 T03210154  RH  037%=      5-min Rain = 0
KSW1 201529Z 22006KT 32/16 A2985 RMK A01 T03230155  RH  036%=      5-min Rain = 0
KSW1 201530Z 21008KT 32/15 A2985 RMK A01 T03240153  RH  036%=      5-min Rain = 0
KSW1 201531Z 22008KT 32/14 A2985 RMK A01 T03240142  RH  033%=      5-min Rain = 0
KSW1 201532Z 23007KT 32/15 A2985 RMK A01 T03230150  RH  035%=      5-min Rain = 0
KSW1 201533Z 22007KT 32/15 A2985 RMK A01 T03220150  RH  035%=      5-min Rain = 0
KSW1 201534Z 22008KT 32/15 A2985 RMK A01 T03230147  RH  034%=      5-min Rain = 0
KSW1 201535Z 22008KT 32/15 A2985 RMK A01 T03230147  RH  035%=      5-min Rain = 0
KSW1 201536Z 21009KT 32/15 A2985 RMK A01 T03240145  RH  034%=      5-min Rain = 0
KSW1 201537Z 22009KT 33/14 A2985 RMK A01 T03250143  RH  033%=      5-min Rain = 0
KSW1 201538Z 21010KT 33/14 A2984 RMK A01 T03250137  RH  032%=      5-min Rain = 0
KSW1 201539Z 21009KT 33/14 A2984 RMK A01 T03250137  RH  032%=      5-min Rain = 0
KSW1 201540Z 21010KT 33/14 A2985 RMK A01 T03260140  RH  033%=      5-min Rain = 0
KSW1 201541Z 22011KT 33/13 A2984 RMK A01 T03270134  RH  031%=      5-min Rain = 0
KSW1 201542Z 22009KT 33/14 A2984 RMK A01 T03270137  RH  032%=      5-min Rain = 0
KSW1 201543Z 22009KT 33/14 A2984 RMK A01 T03260138  RH  032%=      5-min Rain = 0
KSW1 201544Z 22010KT 33/13 A2984 RMK A01 T03270134  RH  031%=      5-min Rain = 0
KSW1 201545Z 22009KT 33/14 A2984 RMK A01 T03280135  RH  031%=      5-min Rain = 0
KSW1 201546Z 23008KT 33/14 A2984 RMK A01 T03280139  RH  032%=      5-min Rain = 0
KSW1 201547Z 23007KT 33/14 A2984 RMK A01 T03270143  RH  033%=      5-min Rain = 0
KSW1 201548Z 21006KT 33/15 A2984 RMK A01 T03280149  RH  034%=      5-min Rain = 0
KSW1 201549Z 20008KT 33/15 A2984 RMK A01 T03300147  RH  033%=      5-min Rain = 0
KSW1 201550Z 20009KT 33/14 A2984 RMK A01 T03310140  RH  032%=      5-min Rain = 0
KSW1 201551Z 20010KT 33/14 A2984 RMK A01 T03330140  RH  031%=      5-min Rain = 0
KSW1 201552Z 20008KT 33/14 A2984 RMK A01 T03340136  RH  030%=      5-min Rain = 0
KSW1 201553Z 20008KT 34/14 A2984 RMK A01 T03350139  RH  031%=      5-min Rain = 0
KSW1 201554Z 20009KT 34/14 A2984 RMK A01 T03360138  RH  030%=      5-min Rain = 0
KSW1 201555Z 21010KT 34/13 A2984 RMK A01 T03360134  RH  030%=      5-min Rain = 0
KSW1 201556Z 22007KT 33/14 A2984 RMK A01 T03340137  RH  030%=      5-min Rain = 0
KSW1 201557Z 21007KT 33/14 A2984 RMK A01 T03320142  RH  032%=      5-min Rain = 0
KSW1 201558Z 23007KT 33/15 A2984 RMK A01 T03320146  RH  033%=      5-min Rain = 0
KSW1 201559Z 22007KT 33/15 A2984 RMK A01 T03330148  RH  033%=      5-min Rain = 0
KSW1 201600Z 22005KT 33/15 A2984 RMK A01 T03330152  RH  034%=      5-min Rain = 0
KSW1 201601Z 23006KT 33/15 A2984 RMK A01 T03330150  RH  033%=      5-min Rain = 0
KSW1 201602Z 21005KT 33/15 A2984 RMK A01 T03340154  RH  034%=      5-min Rain = 0
KSW1 201603Z 20008KT 34/15 A2984 RMK A01 T03360149  RH  032%=      5-min Rain = 0
KSW1 201604Z 22007KT 34/15 A2984 RMK A01 T03380146  RH  032%=      5-min Rain = 0
KSW1 201605Z 22008KT 34/14 A2984 RMK A01 T03380143  RH  031%=      5-min Rain = 0
KSW1 201606Z 22007KT 34/14 A2984 RMK A01 T03370141  RH  031%=      5-min Rain = 0
KSW1 201607Z 22009KT 34/14 A2984 RMK A01 T03380140  RH  030%=      5-min Rain = 0
KSW1 201608Z 21009KT 34/13 A2984 RMK A01 T03390132  RH  029%=      5-min Rain = 0
KSW1 201609Z 21008KT 34/13 A2984 RMK A01 T03390132  RH  029%=      5-min Rain = 0
KSW1 201610Z 21010KT 34/13 A2984 RMK A01 T03390131  RH  028%=      5-min Rain = 0
KSW1 201611Z 23009KT 34/14 A2984 RMK A01 T03390135  RH  029%=      5-min Rain = 0
KSW1 201612Z 23009KT 34/13 A2984 RMK A01 T03390129  RH  028%=      5-min Rain = 0
KSW1 201613Z 22008KT 34/13 A2984 RMK A01 T03370130  RH  029%=      5-min Rain = 0
KSW1 201614Z 22008KT 34/14 A2984 RMK A01 T03370138  RH  030%=      5-min Rain = 0
KSW1 201615Z 23008KT 34/14 A2984 RMK A01 T03390137  RH  030%=      5-min Rain = 0
KSW1 201616Z 23007KT 34/14 A2984 RMK A01 T03400136  RH  029%=      5-min Rain = 0
KSW1 201617Z 23008KT 34/14 A2984 RMK A01 T03400137  RH  029%=      5-min Rain = 0
KSW1 201618Z 21007KT 34/14 A2984 RMK A01 T03400142  RH  030%=      5-min Rain = 0
KSW1 201619Z 22006KT 34/15 A2984 RMK A01 T03430147  RH  031%=      5-min Rain = 0
KSW1 201620Z 23007KT 35/15 A2984 RMK A01 T03450147  RH  030%=      5-min Rain = 0
KSW1 201621Z 23008KT 35/15 A2984 RMK A01 T03460146  RH  030%=      5-min Rain = 0
KSW1 201622Z 22008KT 35/15 A2984 RMK A01 T03450150  RH  031%=      5-min Rain = 0
KSW1 201623Z 21009KT 34/14 A2984 RMK A01 T03440138  RH  029%=      5-min Rain = 0
KSW1 201624Z 22010KT 34/14 A2984 RMK A01 T03440135  RH  028%=      5-min Rain = 0
KSW1 201625Z 22008KT 35/13 A2984 RMK A01 T03450132  RH  028%=      5-min Rain = 0
KSW1 201626Z 23009KT 35/13 A2984 RMK A01 T03460130  RH  027%=      5-min Rain = 0
KSW1 201627Z 23008KT 35/13 A2984 RMK A01 T03460133  RH  028%=      5-min Rain = 0
KSW1 201628Z 22009KT 35/13 A2984 RMK A01 T03460134  RH  028%=      5-min Rain = 0
KSW1 201629Z 22010KT 35/13 A2984 RMK A01 T03450133  RH  028%=      5-min Rain = 0
KSW1 201630Z 22010KT 35/13 A2984 RMK A01 T03450126  RH  027%=      5-min Rain = 0
KSW1 201631Z 21009KT 35/13 A2984 RMK A01 T03450125  RH  026%=      5-min Rain = 0
KSW1 201632Z 21008KT 35/13 A2984 RMK A01 T03450126  RH  027%=      5-min Rain = 0
KSW1 201633Z 22008KT 34/14 A2984 RMK A01 T03440135  RH  029%=      5-min Rain = 0
KSW1 201634Z 23010KT 34/13 A2984 RMK A01 T03440133  RH  028%=      5-min Rain = 0
KSW1 201635Z 22010KT 35/13 A2984 RMK A01 T03450132  RH  028%=      5-min Rain = 0
KSW1 201636Z 21007KT 35/14 A2984 RMK A01 T03470142  RH  029%=      5-min Rain = 0
KSW1 201637Z 23009KT 35/13 A2984 RMK A01 T03500134  RH  027%=      5-min Rain = 0
KSW1 201638Z 22009KT 35/13 A2984 RMK A01 T03490131  RH  027%=      5-min Rain = 0
KSW1 201639Z 22008KT 35/13 A2984 RMK A01 T03480132  RH  027%=      5-min Rain = 0
KSW1 201640Z 21008KT 35/13 A2984 RMK A01 T03500126  RH  026%=      5-min Rain = 0
KSW1 201641Z 21009KT 35/12 A2984 RMK A01 T03510121  RH  025%=      5-min Rain = 0
KSW1 201642Z 20008KT 35/13 A2984 RMK A01 T03510125  RH  026%=      5-min Rain = 0
KSW1 201643Z 20008KT 35/13 A2984 RMK A01 T03500129  RH  026%=      5-min Rain = 0
KSW1 201644Z 19008KT 35/13 A2984 RMK A01 T03510128  RH  026%=      5-min Rain = 0
KSW1 201645Z 21006KT 35/14 A2984 RMK A01 T03510141  RH  028%=      5-min Rain = 0
KSW1 201646Z 22010KT 36/14 A2984 RMK A01 T03550137  RH  027%=      5-min Rain = 0
KSW1 201647Z 23008KT 36/12 A2984 RMK A01 T03550119  RH  024%=      5-min Rain = 0
KSW1 201648Z 21008G13KT 35/13 A2984 RMK A01 T03530133  RH  027%=      5-min Rain = 0
KSW1 201649Z 21011KT 35/12 A2984 RMK A01 T03530116  RH  024%=      5-min Rain = 0
KSW1 201650Z 20009KT 35/12 A2984 RMK A01 T03540116  RH  024%=      5-min Rain = 0
KSW1 201651Z 21009KT 36/13 A2984 RMK A01 T03560125  RH  025%=      5-min Rain = 0
KSW1 201652Z 22009KT 36/12 A2984 RMK A01 T03570122  RH  024%=      5-min Rain = 0
KSW1 201653Z 21010KT 36/13 A2984 RMK A01 T03560129  RH  026%=      5-min Rain = 0
KSW1 201654Z 20011KT 36/12 A2984 RMK A01 T03570119  RH  024%=      5-min Rain = 0
KSW1 201655Z 22010KT 36/12 A2984 RMK A01 T03570119  RH  024%=      5-min Rain = 0
KSW1 201656Z 22011KT 36/12 A2984 RMK A01 T03580115  RH  023%=      5-min Rain = 0
KSW1 201657Z 22010KT 36/12 A2984 RMK A01 T03570119  RH  024%=      5-min Rain = 0
KSW1 201658Z 21007KT 36/13 A2984 RMK A01 T03560133  RH  026%=      5-min Rain = 0
KSW1 201659Z 20009KT 36/13 A2984 RMK A01 T03570134  RH  026%=      5-min Rain = 0
KSW1 201700Z 19010KT 36/14 A2984 RMK A01 T03570137  RH  027%=      5-min Rain = 0
KSW1 201701Z 20011KT 36/14 A2984 RMK A01 T03560138  RH  027%=      5-min Rain = 0
KSW1 201702Z 20010KT 36/14 A2984 RMK A01 T03550136  RH  027%=      5-min Rain = 0
KSW1 201703Z 20009KT 35/14 A2984 RMK A01 T03530142  RH  028%=      5-min Rain = 0
KSW1 201704Z 21009KT 36/14 A2984 RMK A01 T03580140  RH  027%=      5-min Rain = 0
KSW1 201705Z 21011KT 36/13 A2984 RMK A01 T03610125  RH  024%=      5-min Rain = 0
KSW1 201706Z 21010KT 36/13 A2984 RMK A01 T03610133  RH  026%=      5-min Rain = 0
KSW1 201707Z 20008KT 36/14 A2984 RMK A01 T03600141  RH  027%=      5-min Rain = 0
KSW1 201708Z 20008KT 36/14 A2984 RMK A01 T03640140  RH  026%=      5-min Rain = 0
KSW1 201709Z 19008KT 36/13 A2984 RMK A01 T03640132  RH  025%=      5-min Rain = 0
KSW1 201710Z 22008KT 36/13 A2984 RMK A01 T03630131  RH  025%=      5-min Rain = 0
KSW1 201711Z 20011KT 36/13 A2984 RMK A01 T03640133  RH  025%=      5-min Rain = 0
KSW1 201712Z 20011KT 36/13 A2984 RMK A01 T03640131  RH  025%=      5-min Rain = 0
KSW1 201713Z 19012KT 36/13 A2984 RMK A01 T03610129  RH  025%=      5-min Rain = 0
KSW1 201714Z 18012KT 36/13 A2984 RMK A01 T03570131  RH  026%=      5-min Rain = 0
KSW1 201715Z 19011KT 36/12 A2984 RMK A01 T03580124  RH  025%=      5-min Rain = 0
KSW1 201716Z 18010KT 36/12 A2984 RMK A01 T03570122  RH  024%=      5-min Rain = 0
KSW1 201717Z 19011KT 36/12 A2984 RMK A01 T03580123  RH  024%=      5-min Rain = 0
KSW1 201718Z 19012KT 36/12 A2984 RMK A01 T03610119  RH  023%=      5-min Rain = 0
KSW1 201719Z 19012KT 36/12 A2984 RMK A01 T03610115  RH  023%=      5-min Rain = 0
KSW1 201720Z 18013KT 36/11 A2984 RMK A01 T03600113  RH  023%=      5-min Rain = 0
KSW1 201721Z 18011KT 36/11 A2984 RMK A01 T03600112  RH  022%=      5-min Rain = 0
KSW1 201722Z 18011KT 36/12 A2984 RMK A01 T03600115  RH  023%=      5-min Rain = 0
KSW1 201723Z 18011KT 36/12 A2984 RMK A01 T03600123  RH  024%=      5-min Rain = 0
KSW1 201724Z 17012KT 36/12 A2984 RMK A01 T03620123  RH  024%=      5-min Rain = 0
KSW1 201725Z 18009KT 36/12 A2984 RMK A01 T03630119  RH  023%=      5-min Rain = 0
KSW1 201726Z 18011KT 36/12 A2984 RMK A01 T03630122  RH  023%=      5-min Rain = 0
KSW1 201727Z 19011KT 37/12 A2984 RMK A01 T03660120  RH  023%=      5-min Rain = 0
KSW1 201728Z 17012KT 37/12 A2984 RMK A01 T03670121  RH  023%=      5-min Rain = 0
KSW1 201729Z 18014KT 37/11 A2984 RMK A01 T03660113  RH  022%=      5-min Rain = 0
KSW1 201730Z 18013KT 36/12 A2984 RMK A01 T03640117  RH  023%=      5-min Rain = 0
KSW1 201731Z 18014KT 36/12 A2984 RMK A01 T03630116  RH  023%=      5-min Rain = 0
KSW1 201732Z 19013KT 36/11 A2984 RMK A01 T03630113  RH  022%=      5-min Rain = 0
KSW1 201733Z 18013KT 36/11 A2984 RMK A01 T03640110  RH  022%=      5-min Rain = 0
KSW1 201734Z 18013KT 37/11 A2984 RMK A01 T03650110  RH  021%=      5-min Rain = 0
KSW1 201735Z 18013KT 36/11 A2984 RMK A01 T03640109  RH  021%=      5-min Rain = 0
KSW1 201736Z 19011KT 37/10 A2984 RMK A01 T03650104  RH  021%=      5-min Rain = 0
KSW1 201737Z 18010KT 37/11 A2984 RMK A01 T03660108  RH  021%=      5-min Rain = 0
KSW1 201738Z 17010KT 37/11 A2984 RMK A01 T03690114  RH  022%=      5-min Rain = 0
KSW1 201739Z 18015KT 37/11 A2984 RMK A01 T03700111  RH  021%=      5-min Rain = 0
KSW1 201740Z 20012KT 37/10 A2984 RMK A01 T03690104  RH  020%=      5-min Rain = 0
KSW1 201741Z 21013KT 37/10 A2984 RMK A01 T03670103  RH  020%=      5-min Rain = 0
KSW1 201742Z 21011KT 37/11 A2984 RMK A01 T03660111  RH  021%=      5-min Rain = 0
KSW1 201743Z 21012G17KT 37/12 A2984 RMK A01 T03680117  RH  022%=      5-min Rain = 0
KSW1 201744Z 21014KT 37/11 A2984 RMK A01 T03690113  RH  021%=      5-min Rain = 0
KSW1 201745Z 20011KT 37/11 A2984 RMK A01 T03680112  RH  021%=      5-min Rain = 0
KSW1 201746Z 20015KT 37/11 A2984 RMK A01 T03680107  RH  021%=      5-min Rain = 0
KSW1 201747Z 20014KT 37/10 A2984 RMK A01 T03680103  RH  020%=      5-min Rain = 0
KSW1 201748Z 19013KT 37/10 A2984 RMK A01 T03680099  RH  020%=      5-min Rain = 0
KSW1 201749Z 20011KT 37/10 A2984 RMK A01 T03680103  RH  020%=      5-min Rain = 0
KSW1 201750Z 20008KT 37/11 A2984 RMK A01 T03710111  RH  021%=      5-min Rain = 0
KSW1 201751Z 22010KT 37/12 A2984 RMK A01 T03740119  RH  022%=      5-min Rain = 0
KSW1 201752Z 20013KT 37/12 A2984 RMK A01 T03740119  RH  022%=      5-min Rain = 0
KSW1 201753Z 20013KT 37/11 A2984 RMK A01 T03730114  RH  021%=      5-min Rain = 0
KSW1 201754Z 22012KT 37/11 A2984 RMK A01 T03710112  RH  021%=      5-min Rain = 0
KSW1 201755Z 21010KT 37/11 A2984 RMK A01 T03710109  RH  021%=      5-min Rain = 0
KSW1 201756Z 20010KT 37/11 A2984 RMK A01 T03710113  RH  021%=      5-min Rain = 0
KSW1 201757Z 20011KT 37/12 A2984 RMK A01 T03730124  RH  023%=      5-min Rain = 0
KSW1 201758Z 17012KT 38/12 A2983 RMK A01 T03760120  RH  022%=      5-min Rain = 0
KSW1 201759Z 18012KT 37/12 A2983 RMK A01 T03730117  RH  022%=      5-min Rain = 0
KSW1 201800Z 18012KT 37/11 A2983 RMK A01 T03700114  RH  022%=      5-min Rain = 0
KSW1 201801Z 18013KT 37/12 A2983 RMK A01 T03680117  RH  022%=      5-min Rain = 0
KSW1 201802Z 17013KT 37/13 A2983 RMK A01 T03680126  RH  023%=      5-min Rain = 0
KSW1 201803Z 18013KT 37/13 A2983 RMK A01 T03690126  RH  023%=      5-min Rain = 0
KSW1 201804Z 19012KT 37/12 A2983 RMK A01 T03720119  RH  022%=      5-min Rain = 0
KSW1 201805Z 19011KT 37/12 A2983 RMK A01 T03710118  RH  022%=      5-min Rain = 0
KSW1 201806Z 18010KT 37/13 A2983 RMK A01 T03700130  RH  024%=      5-min Rain = 0
KSW1 201807Z 17011KT 37/14 A2983 RMK A01 T03710135  RH  025%=      5-min Rain = 0
KSW1 201808Z 19012KT 37/13 A2983 RMK A01 T03680132  RH  024%=      5-min Rain = 0
KSW1 201809Z 19011KT 37/12 A2983 RMK A01 T03690117  RH  022%=      5-min Rain = 0
KSW1 201810Z 19010KT 37/12 A2983 RMK A01 T03700124  RH  023%=      5-min Rain = 0
KSW1 201811Z 17008G14KT 37/14 A2983 RMK A01 T03700143  RH  026%=      5-min Rain = 0
KSW1 201812Z 18012KT 37/14 A2983 RMK A01 T03710138  RH  025%=      5-min Rain = 0
KSW1 201813Z 16010KT 37/14 A2983 RMK A01 T03700137  RH  025%=      5-min Rain = 0
KSW1 201814Z 16010KT 37/13 A2983 RMK A01 T03680132  RH  024%=      5-min Rain = 0
KSW1 201815Z 16011KT 37/14 A2983 RMK A01 T03670136  RH  025%=      5-min Rain = 0
KSW1 201816Z 16010KT 37/14 A2983 RMK A01 T03670139  RH  026%=      5-min Rain = 0
KSW1 201817Z 17009KT 37/15 A2983 RMK A01 T03680146  RH  027%=      5-min Rain = 0
KSW1 201818Z 17009KT 37/15 A2983 RMK A01 T03670148  RH  027%=      5-min Rain = 0
KSW1 201819Z 15011KT 37/15 A2983 RMK A01 T03670145  RH  027%=      5-min Rain = 0
KSW1 201820Z 16010G15KT 37/15 A2983 RMK A01 T03670150  RH  028%=      5-min Rain = 0
KSW1 201821Z 16010KT 37/16 A2983 RMK A01 T03690158  RH  029%=      5-min Rain = 0
KSW1 201822Z 16012KT 37/16 A2983 RMK A01 T03710156  RH  028%=      5-min Rain = 0
KSW1 201823Z 16009KT 37/15 A2983 RMK A01 T03720152  RH  027%=      5-min Rain = 0
KSW1 201824Z 16008KT 37/15 A2983 RMK A01 T03700149  RH  027%=      5-min Rain = 0
KSW1 201825Z 19010KT 37/14 A2983 RMK A01 T03720137  RH  025%=      5-min Rain = 0
KSW1 201826Z 18013KT 38/13 A2983 RMK A01 T03760131  RH  023%=      5-min Rain = 0
KSW1 201827Z 19011KT 38/11 A2983 RMK A01 T03770109  RH  020%=      5-min Rain = 0
KSW1 201828Z 19012KT 38/12 A2983 RMK A01 T03750118  RH  021%=      5-min Rain = 0
KSW1 201829Z 17012KT 38/12 A2983 RMK A01 T03760122  RH  022%=      5-min Rain = 0
KSW1 201830Z 16010KT 38/13 A2983 RMK A01 T03770125  RH  022%=      5-min Rain = 0
KSW1 201831Z 17008KT 38/13 A2983 RMK A01 T03760130  RH  023%=      5-min Rain = 0
KSW1 201832Z 17011KT 38/13 A2983 RMK A01 T03750127  RH  023%=      5-min Rain = 0
KSW1 201833Z 16009KT 38/13 A2983 RMK A01 T03760127  RH  023%=      5-min Rain = 0
KSW1 201834Z 16013KT 38/14 A2983 RMK A01 T03760138  RH  024%=      5-min Rain = 0
KSW1 201835Z 17012KT 38/13 A2983 RMK A01 T03750130  RH  023%=      5-min Rain = 0
KSW1 201836Z 17013KT 37/14 A2983 RMK A01 T03730143  RH  026%=      5-min Rain = 0
KSW1 201837Z 16011KT 37/15 A2983 RMK A01 T03720145  RH  026%=      5-min Rain = 0
KSW1 201838Z 17012KT 37/13 A2982 RMK A01 T03730125  RH  023%=      5-min Rain = 0
KSW1 201839Z 18013KT 37/11 A2982 RMK A01 T03740114  RH  021%=      5-min Rain = 0
KSW1 201840Z 17012KT 38/11 A2982 RMK A01 T03760114  RH  021%=      5-min Rain = 0
KSW1 201841Z 16014KT 38/12 A2982 RMK A01 T03770116  RH  021%=      5-min Rain = 0
KSW1 201842Z 16011KT 38/12 A2982 RMK A01 T03780122  RH  022%=      5-min Rain = 0
KSW1 201843Z 17011KT 38/12 A2982 RMK A01 T03790116  RH  021%=      5-min Rain = 0
KSW1 201844Z 18012KT 38/12 A2982 RMK A01 T03800123  RH  022%=      5-min Rain = 0
KSW1 201845Z 18013KT 38/11 A2982 RMK A01 T03790113  RH  020%=      5-min Rain = 0
KSW1 201846Z 19012KT 38/12 A2982 RMK A01 T03780118  RH  021%=      5-min Rain = 0
KSW1 201847Z 19011KT 38/12 A2982 RMK A01 T03770121  RH  022%=      5-min Rain = 0
KSW1 201848Z 20013KT 38/12 A2982 RMK A01 T03780121  RH  022%=      5-min Rain = 0
KSW1 201849Z 19010KT 38/12 A2982 RMK A01 T03770120  RH  021%=      5-min Rain = 0
KSW1 201850Z 18011KT 38/13 A2982 RMK A01 T03760129  RH  023%=      5-min Rain = 0
KSW1 201851Z 18011KT 38/12 A2982 RMK A01 T03780117  RH  021%=      5-min Rain = 0
KSW1 201852Z 17008KT 38/12 A2982 RMK A01 T03770123  RH  022%=      5-min Rain = 0
KSW1 201853Z 17006KT 38/12 A2982 RMK A01 T03760123  RH  022%=      5-min Rain = 0
KSW1 201854Z 17007KT 37/12 A2982 RMK A01 T03740122  RH  022%=      5-min Rain = 0
KSW1 201855Z 16012KT 38/13 A2982 RMK A01 T03750131  RH  023%=      5-min Rain = 0
KSW1 201856Z 18011KT 38/13 A2982 RMK A01 T03770130  RH  023%=      5-min Rain = 0
KSW1 201857Z 18010KT 38/12 A2982 RMK A01 T03780124  RH  022%=      5-min Rain = 0
KSW1 201858Z 17009KT 38/12 A2982 RMK A01 T03770124  RH  022%=      5-min Rain = 0
KSW1 201859Z 19006KT 38/14 A2982 RMK A01 T03750135  RH  024%=      5-min Rain = 0
KSW1 201900Z 17007KT 38/14 A2982 RMK A01 T03770137  RH  024%=      5-min Rain = 0
KSW1 201901Z 17009KT 38/13 A2982 RMK A01 T03790133  RH  023%=      5-min Rain = 0
KSW1 201902Z 17013KT 38/12 A2982 RMK A01 T03790120  RH  021%=      5-min Rain = 0
KSW1 201903Z 17011KT 38/09 A2982 RMK A01 T03790091  RH  018%=      5-min Rain = 0
KSW1 201904Z 17012KT 38/09 A2982 RMK A01 T03790094  RH  018%=      5-min Rain = 0
KSW1 201905Z 17011KT 38/11 A2982 RMK A01 T03790109  RH  020%=      5-min Rain = 0
KSW1 201906Z 19014G19KT 38/11 A2982 RMK A01 T03790108  RH  020%=      5-min Rain = 0
KSW1 201907Z 21012KT 38/09 A2982 RMK A01 T03820091  RH  017%=      5-min Rain = 0
KSW1 201908Z 20010KT 38/10 A2982 RMK A01 T03840097  RH  018%=      5-min Rain = 0
KSW1 201909Z 21010KT 39/10 A2982 RMK A01 T03860099  RH  018%=      5-min Rain = 0
KSW1 201910Z 21008KT 39/11 A2982 RMK A01 T03850111  RH  019%=      5-min Rain = 0
KSW1 201911Z 21007KT 39/11 A2982 RMK A01 T03860109  RH  019%=      5-min Rain = 0
KSW1 201912Z 18009KT 39/10 A2982 RMK A01 T03870098  RH  018%=      5-min Rain = 0
KSW1 201913Z 20015KT 39/08 A2981 RMK A01 T03910084  RH  016%=      5-min Rain = 0
KSW1 201914Z 20012KT 39/08 A2981 RMK A01 T03900081  RH  015%=      5-min Rain = 0
KSW1 201915Z 20012KT 39/08 A2981 RMK A01 T03910076  RH  015%=      5-min Rain = 0
KSW1 201916Z 20012KT 39/08 A2981 RMK A01 T03910082  RH  015%=      5-min Rain = 0
KSW1 201917Z 20011KT 39/09 A2981 RMK A01 T03910086  RH  016%=      5-min Rain = 0
KSW1 201918Z 18011KT 39/10 A2981 RMK A01 T03910098  RH  017%=      5-min Rain = 0
KSW1 201919Z 16011KT 39/12 A2981 RMK A01 T03900115  RH  019%=      5-min Rain = 0
KSW1 201920Z 16013KT 39/11 A2981 RMK A01 T03850114  RH  020%=      5-min Rain = 0
KSW1 201921Z 15012KT 38/12 A2981 RMK A01 T03840122  RH  021%=      5-min Rain = 0
KSW1 201922Z 17013KT 39/12 A2981 RMK A01 T03850123  RH  021%=      5-min Rain = 0
KSW1 201923Z 16011KT 39/12 A2981 RMK A01 T03850119  RH  020%=      5-min Rain = 0
KSW1 201924Z 17012KT 38/12 A2981 RMK A01 T03820116  RH  020%=      5-min Rain = 0
KSW1 201925Z 18015KT 38/09 A2981 RMK A01 T03830089  RH  017%=      5-min Rain = 0
KSW1 201926Z 19012G17KT 39/08 A2981 RMK A01 T03850083  RH  016%=      5-min Rain = 0
KSW1 201927Z 20016KT 39/09 A2981 RMK A01 T03860086  RH  016%=      5-min Rain = 0
KSW1 201928Z 20018KT 39/08 A2981 RMK A01 T03890075  RH  015%=      5-min Rain = 0
KSW1 201929Z 21015KT 39/07 A2981 RMK A01 T03890069  RH  014%=      5-min Rain = 0
KSW1 201930Z 22016KT 39/07 A2981 RMK A01 T03910072  RH  014%=      5-min Rain = 0
KSW1 201931Z 22012KT 39/06 A2981 RMK A01 T03890057  RH  013%=      5-min Rain = 0
KSW1 201932Z 22014KT 39/06 A2981 RMK A01 T03890061  RH  013%=      5-min Rain = 0
KSW1 201933Z 21015KT 39/05 A2981 RMK A01 T03890052  RH  013%=      5-min Rain = 0
KSW1 201934Z 20014KT 39/04 A2981 RMK A01 T03900040  RH  012%=      5-min Rain = 0
KSW1 201935Z 20013KT 39/03 A2981 RMK A01 T03920034  RH  011%=      5-min Rain = 0
KSW1 201936Z 20011KT 39/03 A2981 RMK A01 T03920034  RH  011%=      5-min Rain = 0
KSW1 201937Z 20013KT 39/04 A2981 RMK A01 T03930038  RH  011%=      5-min Rain = 0
KSW1 201938Z 20012KT 39/03 A2981 RMK A01 T03930026  RH  010%=      5-min Rain = 0
KSW1 201939Z 20013KT 39/03 A2981 RMK A01 T03930030  RH  011%=      5-min Rain = 0
KSW1 201940Z 19015KT 39/04 A2981 RMK A01 T03930035  RH  011%=      5-min Rain = 0
KSW1 201941Z 19012G18KT 39/03 A2981 RMK A01 T03930031  RH  011%=      5-min Rain = 0
KSW1 201942Z 20011KT 39/04 A2981 RMK A01 T03930039  RH  011%=      5-min Rain = 0
KSW1 201943Z 20018KT 39/03 A2981 RMK A01 T03940028  RH  010%=      5-min Rain = 0
KSW1 201944Z 19016KT 40/03 A2981 RMK A01 T03950027  RH  010%=      5-min Rain = 0
KSW1 201945Z 19013KT 40/03 A2981 RMK A01 T03960029  RH  010%=      5-min Rain = 0
KSW1 201946Z 21013KT 40/03 A2981 RMK A01 T03970032  RH  011%=      5-min Rain = 0
KSW1 201947Z 21014KT 40/04 A2981 RMK A01 T03980041  RH  011%=      5-min Rain = 0
KSW1 201948Z 20012KT 40/04 A2981 RMK A01 T03980037  RH  011%=      5-min Rain = 0
KSW1 201949Z 20011KT 40/04 A2981 RMK A01 T03970042  RH  011%=      5-min Rain = 0
KSW1 201950Z 21015KT 40/04 A2981 RMK A01 T03990044  RH  011%=      5-min Rain = 0
KSW1 201951Z 21014KT 40/04 A2981 RMK A01 T03980044  RH  011%=      5-min Rain = 0
KSW1 201952Z 21012KT 40/05 A2981 RMK A01 T03980053  RH  012%=      5-min Rain = 0
KSW1 201953Z 21010KT 40/06 A2981 RMK A01 T04010059  RH  013%=      5-min Rain = 0
KSW1 201954Z 22013G18KT 40/05 A2981 RMK A01 T04010051  RH  012%=      5-min Rain = 0
KSW1 201955Z 21013KT 40/04 A2981 RMK A01 T03990044  RH  011%=      5-min Rain = 0
KSW1 201956Z 20014KT 40/04 A2981 RMK A01 T03970042  RH  011%=      5-min Rain = 0
KSW1 201957Z 20009KT 40/04 A2981 RMK A01 T03970035  RH  011%=      5-min Rain = 0
KSW1 201958Z 21011KT 40/04 A2981 RMK A01 T03960040  RH  011%=      5-min Rain = 0
KSW1 201959Z 20013KT 40/06 A2981 RMK A01 T03960059  RH  013%=      5-min Rain = 0
KSW1 202000Z 16010KT 40/17 A2981 RMK A01 T03950168  RH  027%=      5-min Rain = 0
KSW1 202001Z 16007KT 39/18 A2981 RMK A01 T03910177  RH  029%=      5-min Rain = 0
KSW1 202002Z 16008KT 39/17 A2981 RMK A01 T03860174  RH  029%=      5-min Rain = 0
KSW1 202003Z 18007KT 38/17 A298 RMK A01 T03810173  RH  029%=      5-min Rain = 0
KSW1 202004Z 17007KT 38/17 A298 RMK A01 T03790174  RH  030%=      5-min Rain = 0
KSW1 202005Z 16008KT 38/16 A298 RMK A01 T03790162  RH  028%=      5-min Rain = 0
KSW1 202006Z 16008KT 38/17 A298 RMK A01 T03790166  RH  029%=      5-min Rain = 0
KSW1 202007Z 15012KT 38/17 A298 RMK A01 T03790166  RH  029%=      5-min Rain = 0
KSW1 202008Z 16012KT 38/17 A298 RMK A01 T03820170  RH  029%=      5-min Rain = 0
KSW1 202009Z 17011KT 38/17 A298 RMK A01 T03830166  RH  028%=      5-min Rain = 0
KSW1 202010Z 17010KT 39/16 A298 RMK A01 T03860158  RH  026%=      5-min Rain = 0
KSW1 202011Z 18009KT 39/16 A298 RMK A01 T03880155  RH  026%=      5-min Rain = 0
KSW1 202012Z 16012G17KT 39/15 A298 RMK A01 T03880150  RH  025%=      5-min Rain = 0
KSW1 202013Z 16012KT 39/14 A298 RMK A01 T03850141  RH  024%=      5-min Rain = 0
KSW1 202014Z 17011KT 38/15 A298 RMK A01 T03790154  RH  027%=      5-min Rain = 0
KSW1 202015Z 17012KT 38/16 A298 RMK A01 T03780162  RH  028%=      5-min Rain = 0
KSW1 202016Z 16013KT 38/16 A298 RMK A01 T03800162  RH  028%=      5-min Rain = 0
KSW1 202017Z 15011KT 38/16 A298 RMK A01 T03810163  RH  028%=      5-min Rain = 0
KSW1 202018Z 15011KT 38/16 A298 RMK A01 T03820162  RH  027%=      5-min Rain = 0
KSW1 202019Z 14012KT 38/16 A298 RMK A01 T03820162  RH  027%=      5-min Rain = 0
KSW1 202020Z 14009KT 38/16 A298 RMK A01 T03790159  RH  027%=      5-min Rain = 0
KSW1 202021Z 13012KT 38/17 A298 RMK A01 T03760167  RH  029%=      5-min Rain = 0
KSW1 202022Z 13012KT 38/17 A298 RMK A01 T03760169  RH  030%=      5-min Rain = 0
KSW1 202023Z 13010KT 38/17 A298 RMK A01 T03770168  RH  029%=      5-min Rain = 0
KSW1 202024Z 15011KT 38/16 A298 RMK A01 T03760164  RH  029%=      5-min Rain = 0
KSW1 202025Z 16013KT 38/16 A298 RMK A01 T03760163  RH  029%=      5-min Rain = 0
KSW1 202026Z 16011KT 38/16 A298 RMK A01 T03770156  RH  027%=      5-min Rain = 0
KSW1 202027Z 17011KT 38/14 A298 RMK A01 T03790144  RH  025%=      5-min Rain = 0
KSW1 202028Z 17010KT 38/09 A298 RMK A01 T03810092  RH  018%=      5-min Rain = 0
KSW1 202029Z 17009KT 39/09 A298 RMK A01 T03860087  RH  016%=      5-min Rain = 0
KSW1 202030Z 17010KT 39/14 A298 RMK A01 T03900141  RH  023%=      5-min Rain = 0
KSW1 202031Z 15009KT 39/16 A298 RMK A01 T03870155  RH  026%=      5-min Rain = 0
KSW1 202032Z 16011KT 39/16 A298 RMK A01 T03870156  RH  026%=      5-min Rain = 0
KSW1 202033Z 16010KT 39/16 A298 RMK A01 T03850162  RH  027%=      5-min Rain = 0
KSW1 202034Z 17008KT 38/16 A298 RMK A01 T03820160  RH  027%=      5-min Rain = 0
KSW1 202035Z 19008KT 38/17 A298 RMK A01 T03810169  RH  029%=      5-min Rain = 0
KSW1 202036Z 15006KT 38/17 A298 RMK A01 T03810172  RH  030%=      5-min Rain = 0
KSW1 202037Z 14004KT 38/17 A298 RMK A01 T03810172  RH  029%=      5-min Rain = 0
KSW1 202038Z 02004KT 38/18 A2979 RMK A01 T03810175  RH  030%=      5-min Rain = 0
KSW1 202039Z 25009KT 38/17 A2979 RMK A01 T03830166  RH  028%=      5-min Rain = 0
KSW1 202040Z 23007KT 39/07 A2979 RMK A01 T03850065  RH  015%=      5-min Rain = 0
KSW1 202041Z 22008KT 39/03 A2979 RMK A01 T03900033  RH  011%=      5-min Rain = 0
KSW1 202042Z 22008KT 40/04 A2979 RMK A01 T03950040  RH  011%=      5-min Rain = 0
KSW1 202043Z 27012G18KT 40/03 A2979 RMK A01 T04000031  RH  010%=      5-min Rain = 0
KSW1 202044Z 25013KT 40/02 A2979 RMK A01 T04020022  RH  010%=      5-min Rain = 0
KSW1 202045Z 26012KT 40/01 A2979 RMK A01 T04020014  RH  009%=      5-min Rain = 0
KSW1 202046Z 25016G21KT 40/00 A2979 RMK A01 T04020002  RH  008%=      5-min Rain = 0
KSW1 202047Z 25012G17KT 40/00 A2979 RMK A01 T04000003  RH  008%=      5-min Rain = 0
KSW1 202048Z 24012KT 40/00 A2979 RMK A01 T03990000  RH  008%=      5-min Rain = 0
KSW1 202049Z 25012KT 40/00 A2979 RMK A01 T03990003  RH  009%=      5-min Rain = 0
KSW1 202050Z 26011G16KT 40/00 A2979 RMK A01 T03990000  RH  008%=      5-min Rain = 0
KSW1 202051Z 26013KT 40/01 A2979 RMK A01 T04000010  RH  009%=      5-min Rain = 0
KSW1 202052Z 26010KT 40/02 A2979 RMK A01 T04010016  RH  009%=      5-min Rain = 0
KSW1 202053Z 25013KT 40/01 A2979 RMK A01 T04030009  RH  009%=      5-min Rain = 0
KSW1 202054Z 25013KT 40/M00 A2979 RMK A01 T04021003  RH  008%=      5-min Rain = 0
KSW1 202055Z 25014KT 40/00 A2979 RMK A01 T04010003  RH  008%=      5-min Rain = 0
KSW1 202056Z 25015KT 40/M00 A2979 RMK A01 T04001003  RH  008%=      5-min Rain = 0
KSW1 202057Z 26012KT 40/00 A2979 RMK A01 T04000001  RH  008%=      5-min Rain = 0
KSW1 202058Z 26010KT 40/M01 A2979 RMK A01 T03991005  RH  008%=      5-min Rain = 0
KSW1 202059Z 26010KT 40/00 A2979 RMK A01 T03980003  RH  009%=      5-min Rain = 0
KSW1 202100Z 27010KT 40/01 A2978 RMK A01 T03990007  RH  009%=      5-min Rain = 0
KSW1 202101Z 28010KT 40/00 A2978 RMK A01 T04000003  RH  008%=      5-min Rain = 0
KSW1 202102Z 27009KT 40/01 A2978 RMK A01 T04000005  RH  009%=      5-min Rain = 0
KSW1 202103Z 26006KT 40/00 A2978 RMK A01 T04000002  RH  008%=      5-min Rain = 0
KSW1 202104Z 26008KT 40/M01 A2978 RMK A01 T03991005  RH  008%=      5-min Rain = 0
KSW1 202105Z 22009KT 40/01 A2978 RMK A01 T03990011  RH  009%=      5-min Rain = 0
KSW1 202106Z 24005KT 40/01 A2978 RMK A01 T04000005  RH  009%=      5-min Rain = 0
KSW1 202107Z 29009G14KT 40/01 A2978 RMK A01 T04000007  RH  009%=      5-min Rain = 0
KSW1 202108Z 26012KT 40/00 A2978 RMK A01 T04010004  RH  009%=      5-min Rain = 0
KSW1 202109Z 25008KT 40/M01 A2978 RMK A01 T04001005  RH  008%=      5-min Rain = 0
KSW1 202110Z 24009KT 40/M00 A2978 RMK A01 T03991004  RH  008%=      5-min Rain = 0
KSW1 202111Z 23008KT 40/00 A2978 RMK A01 T03990003  RH  009%=      5-min Rain = 0
KSW1 202112Z 21010KT 40/01 A2978 RMK A01 T04010008  RH  009%=      5-min Rain = 0
KSW1 202113Z 20010KT 40/01 A2978 RMK A01 T04020005  RH  009%=      5-min Rain = 0
KSW1 202114Z 22014KT 40/01 A2978 RMK A01 T04030009  RH  009%=      5-min Rain = 0
KSW1 202115Z 23011KT 40/00 A2978 RMK A01 T04030001  RH  008%=      5-min Rain = 0
KSW1 202116Z 24012KT 40/01 A2978 RMK A01 T04020006  RH  009%=      5-min Rain = 0
KSW1 202117Z 22014KT 40/01 A2978 RMK A01 T04020007  RH  009%=      5-min Rain = 0
KSW1 202118Z 20015KT 40/M01 A2978 RMK A01 T04021005  RH  008%=      5-min Rain = 0
KSW1 202119Z 21014KT 40/M01 A2978 RMK A01 T04031006  RH  008%=      5-min Rain = 0
KSW1 202120Z 20011KT 40/M00 A2978 RMK A01 T04031001  RH  008%=      5-min Rain = 0
KSW1 202121Z 21012KT 40/M01 A2978 RMK A01 T04031006  RH  008%=      5-min Rain = 0
KSW1 202122Z 21010KT 40/00 A2978 RMK A01 T040300-0  RH  008%=      5-min Rain = 0
KSW1 202123Z 24013G21KT 40/02 A2978 RMK A01 T04030018  RH  009%=      5-min Rain = 0
KSW1 202124Z 23018KT 40/01 A2978 RMK A01 T04030013  RH  009%=      5-min Rain = 0
KSW1 202125Z 23012KT 40/01 A2978 RMK A01 T04020013  RH  009%=      5-min Rain = 0
KSW1 202126Z 22012G17KT 40/02 A2978 RMK A01 T04010022  RH  010%=      5-min Rain = 0
KSW1 202127Z 23013KT 40/02 A2978 RMK A01 T04020023  RH  010%=      5-min Rain = 0
KSW1 202128Z 22012G17KT 40/02 A2978 RMK A01 T04020022  RH  010%=      5-min Rain = 0
KSW1 202129Z 24013KT 40/02 A2978 RMK A01 T04010017  RH  009%=      5-min Rain = 0
KSW1 202130Z 23011KT 40/01 A2978 RMK A01 T04010009  RH  009%=      5-min Rain = 0
KSW1 202131Z 22010KT 40/02 A2977 RMK A01 T04010020  RH  010%=      5-min Rain = 0
KSW1 202132Z 22010KT 40/02 A2977 RMK A01 T04030023  RH  010%=      5-min Rain = 0
KSW1 202133Z 22011KT 40/02 A2977 RMK A01 T04030017  RH  009%=      5-min Rain = 0
KSW1 202134Z 23010KT 40/02 A2977 RMK A01 T04030020  RH  009%=      5-min Rain = 0
KSW1 202135Z 23012KT 40/01 A2977 RMK A01 T04030008  RH  009%=      5-min Rain = 0
KSW1 202136Z 23012KT 40/01 A2977 RMK A01 T04030006  RH  009%=      5-min Rain = 0
KSW1 202137Z 23010KT 40/01 A2977 RMK A01 T04010008  RH  009%=      5-min Rain = 0
KSW1 202138Z 23010KT 40/01 A2977 RMK A01 T04010008  RH  009%=      5-min Rain = 0
KSW1 202139Z 22009KT 40/00 A2977 RMK A01 T04020004  RH  008%=      5-min Rain = 0
KSW1 202140Z 23010KT 40/01 A2977 RMK A01 T04000008  RH  009%=      5-min Rain = 0
KSW1 202141Z 23008KT 40/01 A2977 RMK A01 T04000013  RH  009%=      5-min Rain = 0
KSW1 202142Z 22011KT 40/02 A2977 RMK A01 T04010017  RH  009%=      5-min Rain = 0
KSW1 202143Z 21012KT 40/02 A2977 RMK A01 T04020019  RH  009%=      5-min Rain = 0
KSW1 202144Z 22010KT 40/01 A2977 RMK A01 T04020011  RH  009%=      5-min Rain = 0
KSW1 202145Z 22010KT 40/01 A2977 RMK A01 T04020011  RH  009%=      5-min Rain = 0
KSW1 202146Z 24011KT 40/02 A2977 RMK A01 T04010019  RH  009%=      5-min Rain = 0
KSW1 202147Z 24012KT 40/02 A2977 RMK A01 T04020019  RH  009%=      5-min Rain = 0
KSW1 202148Z 25011KT 40/01 A2977 RMK A01 T04030005  RH  008%=      5-min Rain = 0
KSW1 202149Z 26011KT 40/00 A2977 RMK A01 T04020003  RH  008%=      5-min Rain = 0
KSW1 202150Z 26011KT 40/00 A2977 RMK A01 T04020001  RH  008%=      5-min Rain = 0
KSW1 202151Z 25011KT 40/01 A2977 RMK A01 T04010008  RH  009%=      5-min Rain = 0
KSW1 202152Z 25013G18KT 40/00 A2977 RMK A01 T04000003  RH  008%=      5-min Rain = 0
KSW1 202153Z 24014KT 40/00 A2977 RMK A01 T04010002  RH  008%=      5-min Rain = 0
KSW1 202154Z 25014KT 40/01 A2977 RMK A01 T04010005  RH  009%=      5-min Rain = 0
KSW1 202155Z 27010KT 40/02 A2977 RMK A01 T04020015  RH  009%=      5-min Rain = 0
KSW1 202156Z 25010KT 40/02 A2977 RMK A01 T04030016  RH  009%=      5-min Rain = 0
KSW1 202157Z 23012KT 41/01 A2977 RMK A01 T04050010  RH  009%=      5-min Rain = 0
KSW1 202158Z 24011KT 40/00 A2977 RMK A01 T04040004  RH  008%=      5-min Rain = 0
KSW1 202159Z 24010KT 40/01 A2977 RMK A01 T04010008  RH  009%=      5-min Rain = 0
KSW1 202200Z 25009KT 40/01 A2977 RMK A01 T04010014  RH  009%=      5-min Rain = 0
KSW1 202201Z 25009KT 40/01 A2977 RMK A01 T04030011  RH  009%=      5-min Rain = 0
KSW1 202202Z 25011KT 40/01 A2977 RMK A01 T04030014  RH  009%=      5-min Rain = 0
KSW1 202203Z 26013KT 40/01 A2977 RMK A01 T04030008  RH  009%=      5-min Rain = 0
KSW1 202204Z 26011KT 40/01 A2977 RMK A01 T04020012  RH  009%=      5-min Rain = 0
KSW1 202205Z 24008KT 40/02 A2977 RMK A01 T04020018  RH  009%=      5-min Rain = 0
KSW1 202206Z 25007KT 40/02 A2977 RMK A01 T04030022  RH  010%=      5-min Rain = 0
KSW1 202207Z 25007KT 41/01 A2977 RMK A01 T04050013  RH  009%=      5-min Rain = 0
KSW1 202208Z 27009KT 40/02 A2977 RMK A01 T04040017  RH  009%=      5-min Rain = 0
KSW1 202209Z 25007KT 40/01 A2977 RMK A01 T04040013  RH  009%=      5-min Rain = 0
KSW1 202210Z 25008KT 40/02 A2977 RMK A01 T04030022  RH  010%=      5-min Rain = 0
KSW1 202211Z 22008KT 40/03 A2977 RMK A01 T04040027  RH  010%=      5-min Rain = 0
KSW1 202212Z 23008KT 40/03 A2977 RMK A01 T04040030  RH  010%=      5-min Rain = 0
KSW1 202213Z 25010KT 40/03 A2977 RMK A01 T04040030  RH  010%=      5-min Rain = 0
KSW1 202214Z 24014KT 40/01 A2977 RMK A01 T04040011  RH  009%=      5-min Rain = 0
KSW1 202215Z 25012KT 40/02 A2977 RMK A01 T04020015  RH  009%=      5-min Rain = 0
KSW1 202216Z 24012KT 40/01 A2977 RMK A01 T04020014  RH  009%=      5-min Rain = 0
KSW1 202217Z 24012KT 40/01 A2977 RMK A01 T04010011  RH  009%=      5-min Rain = 0
KSW1 202218Z 23011KT 40/01 A2977 RMK A01 T04000011  RH  009%=      5-min Rain = 0
KSW1 202219Z 22011KT 40/02 A2977 RMK A01 T04000020  RH  010%=      5-min Rain = 0
KSW1 202220Z 21011KT 40/02 A2976 RMK A01 T04000022  RH  010%=      5-min Rain = 0
KSW1 202221Z 21009KT 40/02 A2977 RMK A01 T04000022  RH  010%=      5-min Rain = 0
KSW1 202222Z 23010KT 40/03 A2977 RMK A01 T04000027  RH  010%=      5-min Rain = 0
KSW1 202223Z 22009KT 40/03 A2977 RMK A01 T04000025  RH  010%=      5-min Rain = 0
KSW1 202224Z 21012KT 40/03 A2976 RMK A01 T04010026  RH  010%=      5-min Rain = 0
KSW1 202225Z 22011KT 40/01 A2976 RMK A01 T04010013  RH  009%=      5-min Rain = 0
KSW1 202226Z 22010KT 40/02 A2976 RMK A01 T04010018  RH  009%=      5-min Rain = 0
KSW1 202227Z 22011KT 40/01 A2976 RMK A01 T04010013  RH  009%=      5-min Rain = 0
KSW1 202228Z 23011KT 40/01 A2976 RMK A01 T04010014  RH  009%=      5-min Rain = 0
KSW1 202229Z 23010KT 40/01 A2976 RMK A01 T04000012  RH  009%=      5-min Rain = 0
KSW1 202230Z 22010KT 40/01 A2976 RMK A01 T04000012  RH  009%=      5-min Rain = 0
KSW1 202231Z 23008KT 40/01 A2976 RMK A01 T04010005  RH  009%=      5-min Rain = 0
KSW1 202232Z 23009KT 40/01 A2976 RMK A01 T04000013  RH  009%=      5-min Rain = 0
KSW1 202233Z 24009KT 40/02 A2976 RMK A01 T04000018  RH  009%=      5-min Rain = 0
KSW1 202234Z 24009KT 40/02 A2976 RMK A01 T04000020  RH  010%=      5-min Rain = 0
KSW1 202235Z 23009G14KT 40/03 A2976 RMK A01 T04010026  RH  010%=      5-min Rain = 0
KSW1 202236Z 25010G15KT 40/03 A2976 RMK A01 T04010027  RH  010%=      5-min Rain = 0
KSW1 202237Z 25010KT 40/02 A2976 RMK A01 T04020019  RH  009%=      5-min Rain = 0
KSW1 202238Z 25009KT 40/02 A2976 RMK A01 T04030020  RH  009%=      5-min Rain = 0
KSW1 202239Z 26014KT 40/01 A2976 RMK A01 T04040011  RH  009%=      5-min Rain = 0
KSW1 202240Z 25011KT 40/01 A2976 RMK A01 T04030006  RH  009%=      5-min Rain = 0
KSW1 202241Z 25011KT 40/01 A2976 RMK A01 T04010009  RH  009%=      5-min Rain = 0
KSW1 202242Z 23009KT 40/02 A2976 RMK A01 T04010023  RH  010%=      5-min Rain = 0
KSW1 202243Z 23009KT 40/03 A2976 RMK A01 T04020029  RH  010%=      5-min Rain = 0
KSW1 202244Z 25010KT 40/03 A2976 RMK A01 T04030025  RH  010%=      5-min Rain = 0
KSW1 202245Z 25010KT 40/02 A2976 RMK A01 T04030016  RH  009%=      5-min Rain = 0
KSW1 202246Z 26011KT 40/01 A2976 RMK A01 T04030009  RH  009%=      5-min Rain = 0
KSW1 202247Z 25009KT 40/01 A2976 RMK A01 T04020012  RH  009%=      5-min Rain = 0
KSW1 202248Z 23009KT 40/01 A2976 RMK A01 T04020008  RH  009%=      5-min Rain = 0
KSW1 202249Z 24008KT 40/01 A2976 RMK A01 T04010014  RH  009%=      5-min Rain = 0
KSW1 202250Z 26005KT 40/03 A2976 RMK A01 T04020025  RH  010%=      5-min Rain = 0
KSW1 202251Z 27007KT 40/03 A2976 RMK A01 T04030028  RH  010%=      5-min Rain = 0
KSW1 202252Z 27008KT 40/03 A2976 RMK A01 T04040032  RH  010%=      5-min Rain = 0
KSW1 202253Z 26010KT 41/02 A2976 RMK A01 T04050024  RH  010%=      5-min Rain = 0
KSW1 202254Z 27010KT 40/01 A2976 RMK A01 T04030012  RH  009%=      5-min Rain = 0
KSW1 202255Z 28009KT 40/03 A2976 RMK A01 T04020026  RH  010%=      5-min Rain = 0
KSW1 202256Z 29011KT 40/02 A2976 RMK A01 T04020020  RH  009%=      5-min Rain = 0
KSW1 202257Z 29010KT 40/02 A2976 RMK A01 T04010020  RH  009%=      5-min Rain = 0
KSW1 202258Z 29010KT 40/02 A2976 RMK A01 T04000021  RH  010%=      5-min Rain = 0
KSW1 202259Z 28012G17KT 40/01 A2976 RMK A01 T03990012  RH  009%=      5-min Rain = 0
KSW1 202300Z 27012KT 40/01 A2976 RMK A01 T03980006  RH  009%=      5-min Rain = 0
KSW1 202301Z 28009KT 40/01 A2976 RMK A01 T03980013  RH  009%=      5-min Rain = 0
KSW1 202302Z 28009KT 40/01 A2975 RMK A01 T03980010  RH  009%=      5-min Rain = 0
KSW1 202303Z 28007KT 40/01 A2975 RMK A01 T03980013  RH  009%=      5-min Rain = 0
KSW1 202304Z 29009KT 40/02 A2975 RMK A01 T03980016  RH  009%=      5-min Rain = 0
KSW1 202305Z 28008KT 40/02 A2975 RMK A01 T03980019  RH  010%=      5-min Rain = 0
KSW1 202306Z 28009KT 40/01 A2975 RMK A01 T03980010  RH  009%=      5-min Rain = 0
KSW1 202307Z 27009KT 40/01 A2975 RMK A01 T03980010  RH  009%=      5-min Rain = 0
KSW1 202308Z 27008KT 40/01 A2975 RMK A01 T03970007  RH  009%=      5-min Rain = 0
KSW1 202309Z 28006KT 40/02 A2975 RMK A01 T03970019  RH  010%=      5-min Rain = 0
KSW1 202310Z 27010KT 40/02 A2975 RMK A01 T03970019  RH  010%=      5-min Rain = 0
KSW1 202311Z 28009KT 40/01 A2975 RMK A01 T03980011  RH  009%=      5-min Rain = 0
KSW1 202312Z 30008KT 40/02 A2975 RMK A01 T03970016  RH  009%=      5-min Rain = 0
KSW1 202313Z 30007KT 40/01 A2975 RMK A01 T03970010  RH  009%=      5-min Rain = 0
KSW1 202314Z 29006KT 40/02 A2975 RMK A01 T03970016  RH  009%=      5-min Rain = 0
KSW1 202315Z 28005KT 40/02 A2975 RMK A01 T03970017  RH  009%=      5-min Rain = 0
KSW1 202316Z 28006KT 40/02 A2975 RMK A01 T03980018  RH  010%=      5-min Rain = 0
KSW1 202317Z 29006KT 40/02 A2975 RMK A01 T03980024  RH  010%=      5-min Rain = 0
KSW1 202318Z 30005KT 40/03 A2975 RMK A01 T03980029  RH  010%=      5-min Rain = 0
KSW1 202319Z 29009KT 40/03 A2975 RMK A01 T03990025  RH  010%=      5-min Rain = 0
KSW1 202320Z 29006KT 40/01 A2975 RMK A01 T03990012  RH  009%=      5-min Rain = 0
KSW1 202321Z 26008KT 40/02 A2975 RMK A01 T03980015  RH  009%=      5-min Rain = 0
KSW1 202322Z 26013KT 40/02 A2975 RMK A01 T03970015  RH  009%=      5-min Rain = 0
KSW1 202323Z 24011KT 40/02 A2975 RMK A01 T03970017  RH  010%=      5-min Rain = 0
KSW1 202324Z 23008KT 40/03 A2975 RMK A01 T03970032  RH  011%=      5-min Rain = 0
KSW1 202325Z 24008KT 40/03 A2975 RMK A01 T03970027  RH  010%=      5-min Rain = 0
KSW1 202326Z 23009KT 40/03 A2975 RMK A01 T03970027  RH  010%=      5-min Rain = 0
KSW1 202327Z 24008KT 40/02 A2975 RMK A01 T03970020  RH  010%=      5-min Rain = 0
KSW1 202328Z 23009KT 40/03 A2975 RMK A01 T03970028  RH  010%=      5-min Rain = 0
KSW1 202329Z 23011KT 40/03 A2975 RMK A01 T03970029  RH  010%=      5-min Rain = 0
KSW1 202330Z 24009KT 40/03 A2975 RMK A01 T03970027  RH  010%=      5-min Rain = 0
KSW1 202331Z 24008KT 40/02 A2975 RMK A01 T03970024  RH  010%=      5-min Rain = 0
KSW1 202332Z 25007KT 40/02 A2975 RMK A01 T03970018  RH  010%=      5-min Rain = 0
KSW1 202333Z 23006KT 40/03 A2975 RMK A01 T03960025  RH  010%=      5-min Rain = 0
KSW1 202334Z 25006KT 40/03 A2975 RMK A01 T03960030  RH  010%=      5-min Rain = 0
KSW1 202335Z 27005KT 40/04 A2975 RMK A01 T03970036  RH  011%=      5-min Rain = 0
KSW1 202336Z 28006KT 40/03 A2975 RMK A01 T03980030  RH  010%=      5-min Rain = 0
KSW1 202337Z 27005KT 40/04 A2975 RMK A01 T03980040  RH  011%=      5-min Rain = 0
KSW1 202338Z 28008KT 40/03 A2975 RMK A01 T03980025  RH  010%=      5-min Rain = 0
KSW1 202339Z 28006KT 40/03 A2975 RMK A01 T03980027  RH  010%=      5-min Rain = 0
KSW1 202340Z 27007KT 40/02 A2975 RMK A01 T03970022  RH  010%=      5-min Rain = 0
KSW1 202341Z 27006KT 40/02 A2975 RMK A01 T03970021  RH  010%=      5-min Rain = 0
KSW1 202342Z 26008KT 40/02 A2975 RMK A01 T03960018  RH  010%=      5-min Rain = 0
KSW1 202343Z 27007KT 40/02 A2975 RMK A01 T03960018  RH  010%=      5-min Rain = 0
KSW1 202344Z 28008KT 40/02 A2975 RMK A01 T03960015  RH  009%=      5-min Rain = 0
KSW1 202345Z 27005KT 40/01 A2975 RMK A01 T03960013  RH  009%=      5-min Rain = 0
KSW1 202346Z 27005KT 40/02 A2975 RMK A01 T03960015  RH  009%=      5-min Rain = 0
KSW1 202347Z 26005KT 40/02 A2974 RMK A01 T03960015  RH  009%=      5-min Rain = 0
KSW1 202348Z 27005KT 40/02 A2974 RMK A01 T03960022  RH  010%=      5-min Rain = 0
KSW1 202349Z 28003KT 40/02 A2974 RMK A01 T03960023  RH  010%=      5-min Rain = 0
KSW1 202350Z 28006KT 40/03 A2974 RMK A01 T03970027  RH  010%=      5-min Rain = 0
KSW1 202351Z 29006KT 40/02 A2974 RMK A01 T03960021  RH  010%=      5-min Rain = 0
KSW1 202352Z 29005KT 40/03 A2974 RMK A01 T03960034  RH  011%=      5-min Rain = 0
KSW1 202353Z 30006KT 40/03 A2974 RMK A01 T03950032  RH  011%=      5-min Rain = 0
KSW1 202354Z 30005KT 40/03 A2974 RMK A01 T03950026  RH  010%=      5-min Rain = 0
KSW1 202355Z 31005KT 39/04 A2974 RMK A01 T03940039  RH  011%=      5-min Rain = 0
KSW1 202356Z 30004KT 39/04 A2974 RMK A01 T03940042  RH  012%=      5-min Rain = 0
KSW1 202357Z 31007KT 39/04 A2974 RMK A01 T03940041  RH  011%=      5-min Rain = 0
KSW1 202358Z 30007KT 39/03 A2974 RMK A01 T03940033  RH  011%=      5-min Rain = 0
KSW1 202359Z 29007KT 39/03 A2974 RMK A01 T03940025  RH  010%=      5-min Rain = 0
KSW1 210000Z 29005KT 39/03 A2974 RMK A01 T03930029  RH  011%=      5-min Rain = 0
KSW1 210001Z 29004KT 39/05 A2974 RMK A01 T03920045  RH  012%=      5-min Rain = 0
KSW1 210002Z 29004KT 39/05 A2974 RMK A01 T03920050  RH  012%=      5-min Rain = 0
KSW1 210003Z 28004KT 39/05 A2974 RMK A01 T03920049  RH  012%=      5-min Rain = 0
KSW1 210004Z 29005KT 39/04 A2974 RMK A01 T03920044  RH  012%=      5-min Rain = 0
KSW1 210005Z 29004KT 39/05 A2974 RMK A01 T03920050  RH  012%=      5-min Rain = 0
KSW1 210006Z 29006KT 39/04 A2974 RMK A01 T03920040  RH  012%=      5-min Rain = 0
KSW1 210007Z 30004KT 39/04 A2974 RMK A01 T03920041  RH  012%=      5-min Rain = 0
KSW1 210008Z 30004KT 39/05 A2974 RMK A01 T03920049  RH  012%=      5-min Rain = 0
KSW1 210009Z 31004KT 39/05 A2974 RMK A01 T03910050  RH  012%=      5-min Rain = 0
KSW1 210010Z 30005KT 39/05 A2974 RMK A01 T03910047  RH  012%=      5-min Rain = 0
KSW1 210011Z 29005KT 39/04 A2974 RMK A01 T03910035  RH  011%=      5-min Rain = 0
KSW1 210012Z 29004KT 39/04 A2974 RMK A01 T03910037  RH  011%=      5-min Rain = 0
KSW1 210013Z 29003KT 39/06 A2974 RMK A01 T03910055  RH  013%=      5-min Rain = 0
KSW1 210014Z 29004KT 39/05 A2974 RMK A01 T03910046  RH  012%=      5-min Rain = 0
KSW1 210015Z 29003KT 39/05 A2974 RMK A01 T03910048  RH  012%=      5-min Rain = 0
KSW1 210016Z 29003KT 39/05 A2975 RMK A01 T03920046  RH  012%=      5-min Rain = 0
KSW1 210017Z 27002KT 39/04 A2975 RMK A01 T03910038  RH  011%=      5-min Rain = 0
KSW1 210018Z 26002KT 39/05 A2975 RMK A01 T03920048  RH  012%=      5-min Rain = 0
KSW1 210019Z 26002KT 39/04 A2975 RMK A01 T03920040  RH  011%=      5-min Rain = 0
KSW1 210020Z 26003KT 39/03 A2975 RMK A01 T03930033  RH  011%=      5-min Rain = 0
KSW1 210021Z 26003KT 39/03 A2975 RMK A01 T03930030  RH  011%=      5-min Rain = 0
KSW1 210022Z 22003KT 39/03 A2975 RMK A01 T03930029  RH  011%=      5-min Rain = 0
KSW1 210023Z 21004KT 39/05 A2975 RMK A01 T03920050  RH  012%=      5-min Rain = 0
KSW1 210024Z 21005KT 39/04 A2975 RMK A01 T03910040  RH  012%=      5-min Rain = 0
KSW1 210025Z 19005KT 39/04 A2975 RMK A01 T03900039  RH  012%=      5-min Rain = 0
KSW1 210026Z 19007KT 39/04 A2975 RMK A01 T03900040  RH  012%=      5-min Rain = 0
KSW1 210027Z 17007KT 39/04 A2975 RMK A01 T03890036  RH  011%=      5-min Rain = 0
KSW1 210028Z 18006KT 39/04 A2975 RMK A01 T03880040  RH  012%=      5-min Rain = 0
KSW1 210029Z 17006KT 39/04 A2975 RMK A01 T03870037  RH  012%=      5-min Rain = 0
KSW1 210030Z 15006KT 39/06 A2975 RMK A01 T03860060  RH  014%=      5-min Rain = 0
KSW1 210031Z 15007KT 39/08 A2975 RMK A01 T03850076  RH  015%=      5-min Rain = 0
KSW1 210032Z 15006KT 38/08 A2975 RMK A01 T03830083  RH  016%=      5-min Rain = 0
KSW1 210033Z 16005KT 38/09 A2975 RMK A01 T03810091  RH  017%=      5-min Rain = 0
KSW1 210034Z 16007KT 38/09 A2975 RMK A01 T03800094  RH  018%=      5-min Rain = 0
KSW1 210035Z 16007KT 38/10 A2975 RMK A01 T03780098  RH  018%=      5-min Rain = 0
KSW1 210036Z 16008KT 38/10 A2975 RMK A01 T03770097  RH  018%=      5-min Rain = 0
KSW1 210037Z 16008KT 38/10 A2975 RMK A01 T03750102  RH  019%=      5-min Rain = 0
KSW1 210038Z 15008KT 37/10 A2975 RMK A01 T03730104  RH  020%=      5-min Rain = 0
KSW1 210039Z 15007KT 37/10 A2975 RMK A01 T03720102  RH  020%=      5-min Rain = 0
KSW1 210040Z 15008KT 37/11 A2975 RMK A01 T03720109  RH  021%=      5-min Rain = 0
KSW1 210041Z 15008KT 37/11 A2975 RMK A01 T03690111  RH  021%=      5-min Rain = 0
KSW1 210042Z 16008KT 37/11 A2975 RMK A01 T03670110  RH  021%=      5-min Rain = 0
KSW1 210043Z 16007KT 37/11 A2976 RMK A01 T03650109  RH  021%=      5-min Rain = 0
KSW1 210044Z 15006KT 36/11 A2976 RMK A01 T03640111  RH  022%=      5-min Rain = 0
KSW1 210045Z 14006KT 36/11 A2976 RMK A01 T03640113  RH  022%=      5-min Rain = 0
KSW1 210046Z 14006KT 36/12 A2976 RMK A01 T03640115  RH  022%=      5-min Rain = 0
KSW1 210047Z 13006KT 36/12 A2976 RMK A01 T03630118  RH  023%=      5-min Rain = 0
KSW1 210048Z 14008KT 36/12 A2976 RMK A01 T03630116  RH  023%=      5-min Rain = 0
KSW1 210049Z 14008KT 36/12 A2976 RMK A01 T03620115  RH  023%=      5-min Rain = 0
KSW1 210050Z 14007KT 36/12 A2976 RMK A01 T03620117  RH  023%=      5-min Rain = 0
KSW1 210051Z 15006KT 36/12 A2976 RMK A01 T03620120  RH  023%=      5-min Rain = 0
KSW1 210052Z 15007KT 36/12 A2976 RMK A01 T03620121  RH  023%=      5-min Rain = 0
KSW1 210053Z 15006KT 36/12 A2976 RMK A01 T03610121  RH  024%=      5-min Rain = 0
KSW1 210054Z 15006KT 36/12 A2976 RMK A01 T03600121  RH  024%=      5-min Rain = 0
KSW1 210055Z 15008KT 36/12 A2976 RMK A01 T03590124  RH  024%=      5-min Rain = 0
KSW1 210056Z 14006KT 36/13 A2976 RMK A01 T03570126  RH  025%=      5-min Rain = 0
KSW1 210057Z 16007KT 36/13 A2976 RMK A01 T03560126  RH  025%=      5-min Rain = 0
KSW1 210058Z 15008KT 36/13 A2976 RMK A01 T03550130  RH  026%=      5-min Rain = 0
KSW1 210059Z 15006KT 35/13 A2976 RMK A01 T03530131  RH  026%=      5-min Rain = 0
KSW1 210100Z 16011KT 35/13 A2976 RMK A01 T03520134  RH  027%=      5-min Rain = 0
KSW1 210101Z 16010KT 35/14 A2976 RMK A01 T03500135  RH  027%=      5-min Rain = 0
KSW1 210102Z 15009KT 35/14 A2976 RMK A01 T03500139  RH  028%=      5-min Rain = 0
KSW1 210103Z 15009KT 35/14 A2976 RMK A01 T03470141  RH  029%=      5-min Rain = 0
KSW1 210104Z 15009KT 35/14 A2976 RMK A01 T03460143  RH  030%=      5-min Rain = 0
KSW1 210105Z 15010KT 35/14 A2976 RMK A01 T03450143  RH  030%=      5-min Rain = 0
KSW1 210106Z 16010KT 34/14 A2976 RMK A01 T03440144  RH  030%=      5-min Rain = 0
KSW1 210107Z 15010KT 34/15 A2976 RMK A01 T03430146  RH  031%=      5-min Rain = 0
KSW1 210108Z 15011KT 34/15 A2976 RMK A01 T03420147  RH  031%=      5-min Rain = 0
KSW1 210109Z 15010KT 34/15 A2976 RMK A01 T03410147  RH  031%=      5-min Rain = 0
KSW1 210110Z 15012KT 34/15 A2976 RMK A01 T03400147  RH  031%=      5-min Rain = 0
KSW1 210111Z 15011KT 34/15 A2976 RMK A01 T03390147  RH  032%=      5-min Rain = 0
KSW1 210112Z 15012KT 34/15 A2976 RMK A01 T03390148  RH  032%=      5-min Rain = 0
KSW1 210113Z 15011KT 34/15 A2976 RMK A01 T03390148  RH  032%=      5-min Rain = 0
KSW1 210114Z 15011KT 34/15 A2976 RMK A01 T03390148  RH  032%=      5-min Rain = 0
KSW1 210115Z 16011KT 34/15 A2976 RMK A01 T03380148  RH  032%=      5-min Rain = 0
KSW1 210116Z 16010KT 34/15 A2976 RMK A01 T03380148  RH  032%=      5-min Rain = 0
KSW1 210117Z 16011KT 34/15 A2976 RMK A01 T03380148  RH  032%=      5-min Rain = 0
KSW1 210118Z 16010KT 34/15 A2976 RMK A01 T03370149  RH  032%=      5-min Rain = 0
KSW1 210119Z 15010KT 34/15 A2976 RMK A01 T03360149  RH  032%=      5-min Rain = 0
KSW1 210120Z 15010KT 34/15 A2976 RMK A01 T03360149  RH  033%=      5-min Rain = 0
KSW1 210121Z 15009KT 34/15 A2976 RMK A01 T03350150  RH  033%=      5-min Rain = 0
KSW1 210122Z 15008KT 33/15 A2976 RMK A01 T03340150  RH  033%=      5-min Rain = 0
KSW1 210123Z 15009KT 33/15 A2976 RMK A01 T03330150  RH  033%=      5-min Rain = 0
KSW1 210124Z 15008KT 33/15 A2976 RMK A01 T03330149  RH  033%=      5-min Rain = 0
KSW1 210125Z 15011KT 33/15 A2976 RMK A01 T03320150  RH  033%=      5-min Rain = 0
KSW1 210126Z 16009KT 33/15 A2976 RMK A01 T03320149  RH  033%=      5-min Rain = 0
KSW1 210127Z 16009KT 33/15 A2976 RMK A01 T03320150  RH  033%=      5-min Rain = 0
KSW1 210128Z 16008KT 33/15 A2976 RMK A01 T03310150  RH  034%=      5-min Rain = 0
KSW1 210129Z 16008KT 33/15 A2976 RMK A01 T03300150  RH  034%=      5-min Rain = 0
KSW1 210130Z 15008KT 33/15 A2976 RMK A01 T03290150  RH  034%=      5-min Rain = 0
KSW1 210131Z 16007KT 33/15 A2976 RMK A01 T03280151  RH  034%=      5-min Rain = 0
KSW1 210132Z 16008KT 33/15 A2976 RMK A01 T03270151  RH  035%=      5-min Rain = 0
KSW1 210133Z 16009KT 33/15 A2976 RMK A01 T03260150  RH  035%=      5-min Rain = 0
KSW1 210134Z 16009KT 33/15 A2976 RMK A01 T03260150  RH  035%=      5-min Rain = 0
KSW1 210135Z 15008KT 33/15 A2976 RMK A01 T03250151  RH  035%=      5-min Rain = 0
KSW1 210136Z 16011KT 32/15 A2976 RMK A01 T03240151  RH  035%=      5-min Rain = 0
KSW1 210137Z 16009KT 32/15 A2976 RMK A01 T03240150  RH  035%=      5-min Rain = 0
KSW1 210138Z 16010KT 32/15 A2976 RMK A01 T03240150  RH  035%=      5-min Rain = 0
KSW1 210139Z 16010KT 32/15 A2976 RMK A01 T03230151  RH  035%=      5-min Rain = 0
KSW1 210140Z 16009KT 32/15 A2976 RMK A01 T03230151  RH  035%=      5-min Rain = 0
KSW1 210141Z 16009KT 32/15 A2976 RMK A01 T03230151  RH  036%=      5-min Rain = 0
KSW1 210142Z 16009KT 32/15 A2976 RMK A01 T03220151  RH  036%=      5-min Rain = 0
KSW1 210143Z 16009KT 32/15 A2976 RMK A01 T03220150  RH  035%=      5-min Rain = 0
KSW1 210144Z 17009KT 32/15 A2976 RMK A01 T03220150  RH  035%=      5-min Rain = 0
KSW1 210145Z 16008KT 32/15 A2976 RMK A01 T03220151  RH  036%=      5-min Rain = 0
KSW1 210146Z 16009KT 32/15 A2976 RMK A01 T03220151  RH  036%=      5-min Rain = 0
KSW1 210147Z 16009KT 32/15 A2976 RMK A01 T03210151  RH  036%=      5-min Rain = 0
KSW1 210148Z 16010KT 32/15 A2976 RMK A01 T03210151  RH  036%=      5-min Rain = 0
KSW1 210149Z 16010KT 32/15 A2976 RMK A01 T03210150  RH  036%=      5-min Rain = 0
KSW1 210150Z 16011KT 32/15 A2976 RMK A01 T03210150  RH  036%=      5-min Rain = 0
KSW1 210151Z 16010KT 32/15 A2976 RMK A01 T03210151  RH  036%=      5-min Rain = 0
KSW1 210152Z 16012KT 32/15 A2976 RMK A01 T03210151  RH  036%=      5-min Rain = 0
KSW1 210153Z 15011KT 32/15 A2976 RMK A01 T03210150  RH  036%=      5-min Rain = 0
KSW1 210154Z 15011KT 32/15 A2976 RMK A01 T03210150  RH  036%=      5-min Rain = 0
KSW1 210155Z 16011KT 32/15 A2976 RMK A01 T03220151  RH  036%=      5-min Rain = 0
KSW1 210156Z 15011KT 32/15 A2976 RMK A01 T03210150  RH  036%=      5-min Rain = 0
KSW1 210157Z 16010KT 32/15 A2976 RMK A01 T03210149  RH  036%=      5-min Rain = 0
KSW1 210158Z 15010KT 32/15 A2976 RMK A01 T03210151  RH  036%=      5-min Rain = 0
KSW1 210159Z 15011KT 32/15 A2976 RMK A01 T03210150  RH  036%=      5-min Rain = 0
KSW1 210200Z 15010KT 32/15 A2976 RMK A01 T03200150  RH  036%=      5-min Rain = 0
KSW1 210201Z 15012KT 32/15 A2976 RMK A01 T03200149  RH  036%=      5-min Rain = 0
KSW1 210202Z 15010KT 32/15 A2976 RMK A01 T03200149  RH  036%=      5-min Rain = 0
KSW1 210203Z 15011G17KT 32/15 A2976 RMK A01 T03200149  RH  036%=      5-min Rain = 0
KSW1 210204Z 16013KT 32/15 A2976 RMK A01 T03200149  RH  036%=      5-min Rain = 0
KSW1 210205Z 16013KT 32/15 A2976 RMK A01 T03200148  RH  035%=      5-min Rain = 0
KSW1 210206Z 17012KT 32/15 A2976 RMK A01 T03210148  RH  035%=      5-min Rain = 0
KSW1 210207Z 17013KT 32/15 A2976 RMK A01 T03230147  RH  035%=      5-min Rain = 0
KSW1 210208Z 17014KT 32/15 A2976 RMK A01 T03240147  RH  034%=      5-min Rain = 0
KSW1 210209Z 17014KT 33/15 A2976 RMK A01 T03250146  RH  034%=      5-min Rain = 0
KSW1 210210Z 17015KT 33/15 A2976 RMK A01 T03260146  RH  034%=      5-min Rain = 0
KSW1 210211Z 17015KT 33/15 A2976 RMK A01 T03270146  RH  033%=      5-min Rain = 0
KSW1 210212Z 17012KT 33/15 A2977 RMK A01 T03270146  RH  033%=      5-min Rain = 0
KSW1 210213Z 17013KT 33/15 A2977 RMK A01 T03270146  RH  034%=      5-min Rain = 0
KSW1 210214Z 17015KT 33/15 A2977 RMK A01 T03270145  RH  033%=      5-min Rain = 0
KSW1 210215Z 17015KT 33/15 A2977 RMK A01 T03270145  RH  033%=      5-min Rain = 0
KSW1 210216Z 17015KT 33/15 A2977 RMK A01 T03270145  RH  033%=      5-min Rain = 0
KSW1 210217Z 17015KT 33/15 A2977 RMK A01 T03280145  RH  033%=      5-min Rain = 0
KSW1 210218Z 17012G17KT 33/15 A2977 RMK A01 T03280146  RH  033%=      5-min Rain = 0
KSW1 210219Z 17012G17KT 33/15 A2977 RMK A01 T03270147  RH  034%=      5-min Rain = 0
KSW1 210220Z 17014KT 33/15 A2977 RMK A01 T03260146  RH  034%=      5-min Rain = 0
KSW1 210221Z 17013KT 33/15 A2977 RMK A01 T03250146  RH  034%=      5-min Rain = 0
KSW1 210222Z 17011KT 33/15 A2977 RMK A01 T03260147  RH  034%=      5-min Rain = 0
KSW1 210223Z 17012KT 33/15 A2977 RMK A01 T03250147  RH  034%=      5-min Rain = 0
KSW1 210224Z 17012KT 32/15 A2977 RMK A01 T03240148  RH  034%=      5-min Rain = 0
KSW1 210225Z 17012KT 32/15 A2977 RMK A01 T03230148  RH  035%=      5-min Rain = 0
KSW1 210226Z 17012KT 32/15 A2977 RMK A01 T03230148  RH  035%=      5-min Rain = 0
KSW1 210227Z 17012KT 32/15 A2977 RMK A01 T03220149  RH  035%=      5-min Rain = 0
KSW1 210228Z 17012KT 32/15 A2977 RMK A01 T03220149  RH  035%=      5-min Rain = 0
KSW1 210229Z 17014KT 32/15 A2977 RMK A01 T03210149  RH  035%=      5-min Rain = 0
KSW1 210230Z 17012KT 32/15 A2977 RMK A01 T03210149  RH  035%=      5-min Rain = 0
KSW1 210231Z 17011G16KT 32/15 A2977 RMK A01 T03210150  RH  035%=      5-min Rain = 0
KSW1 210232Z 17014KT 32/15 A2977 RMK A01 T03210150  RH  036%=      5-min Rain = 0
KSW1 210233Z 17013KT 32/15 A2977 RMK A01 T03210150  RH  036%=      5-min Rain = 0
KSW1 210234Z 17013KT 32/15 A2977 RMK A01 T03210151  RH  036%=      5-min Rain = 0
KSW1 210235Z 17012KT 32/15 A2978 RMK A01 T03210151  RH  036%=      5-min Rain = 0
KSW1 210236Z 17014KT 32/15 A2977 RMK A01 T03210151  RH  036%=      5-min Rain = 0
KSW1 210237Z 17013KT 32/15 A2977 RMK A01 T03210152  RH  036%=      5-min Rain = 0
KSW1 210238Z 17012KT 32/15 A2978 RMK A01 T03220153  RH  036%=      5-min Rain = 0
KSW1 210239Z 17013KT 32/15 A2978 RMK A01 T03210153  RH  036%=      5-min Rain = 0
KSW1 210240Z 17013G18KT 32/15 A2978 RMK A01 T03200153  RH  037%=      5-min Rain = 0
KSW1 210241Z 17011KT 32/15 A2978 RMK A01 T03200154  RH  037%=      5-min Rain = 0
KSW1 210242Z 17013KT 32/16 A2978 RMK A01 T03200155  RH  037%=      5-min Rain = 0
KSW1 210243Z 17013KT 32/16 A2978 RMK A01 T03190155  RH  037%=      5-min Rain = 0
KSW1 210244Z 17012KT 32/16 A2978 RMK A01 T03190156  RH  037%=      5-min Rain = 0
KSW1 210245Z 17013KT 32/16 A2978 RMK A01 T03190156  RH  038%=      5-min Rain = 0
KSW1 210246Z 17011KT 32/16 A2978 RMK A01 T03180157  RH  038%=      5-min Rain = 0
KSW1 210247Z 17013KT 32/16 A2978 RMK A01 T03180157  RH  038%=      5-min Rain = 0
KSW1 210248Z 17012KT 32/16 A2978 RMK A01 T03180158  RH  038%=      5-min Rain = 0
KSW1 210249Z 17013KT 32/16 A2978 RMK A01 T03180158  RH  038%=      5-min Rain = 0
KSW1 210250Z 17014KT 32/16 A2978 RMK A01 T03180158  RH  038%=      5-min Rain = 0
KSW1 210251Z 17012KT 32/16 A2978 RMK A01 T03190158  RH  038%=      5-min Rain = 0
KSW1 210252Z 17013KT 32/16 A2978 RMK A01 T03190159  RH  038%=      5-min Rain = 0
KSW1 210253Z 16012KT 32/16 A2978 RMK A01 T03180159  RH  038%=      5-min Rain = 0
KSW1 210254Z 16013KT 32/16 A2978 RMK A01 T03180159  RH  038%=      5-min Rain = 0
KSW1 210255Z 16011KT 32/16 A2978 RMK A01 T03170159  RH  039%=      5-min Rain = 0
KSW1 210256Z 16014KT 32/16 A2978 RMK A01 T03160160  RH  039%=      5-min Rain = 0
KSW1 210257Z 16013KT 32/16 A2978 RMK A01 T03160160  RH  039%=      5-min Rain = 0
KSW1 210258Z 17012KT 32/16 A2978 RMK A01 T03170161  RH  039%=      5-min Rain = 0
KSW1 210259Z 16012KT 32/16 A2978 RMK A01 T03160161  RH  039%=      5-min Rain = 0
KSW1 210300Z 16010KT 32/16 A2978 RMK A01 T03150161  RH  040%=      5-min Rain = 0
KSW1 210301Z 16011KT 32/16 A2978 RMK A01 T03150162  RH  040%=      5-min Rain = 0
KSW1 210302Z 16011KT 31/16 A2979 RMK A01 T03130162  RH  040%=      5-min Rain = 0
KSW1 210303Z 16011KT 31/16 A2979 RMK A01 T03120163  RH  041%=      5-min Rain = 0
KSW1 210304Z 16011KT 31/16 A2979 RMK A01 T03120164  RH  041%=      5-min Rain = 0
KSW1 210305Z 16011KT 31/16 A2979 RMK A01 T03100164  RH  041%=      5-min Rain = 0
KSW1 210306Z 16011KT 31/16 A2979 RMK A01 T03090164  RH  042%=      5-min Rain = 0
KSW1 210307Z 16010KT 31/16 A2979 RMK A01 T03080164  RH  042%=      5-min Rain = 0
KSW1 210308Z 16010KT 31/17 A2979 RMK A01 T03080165  RH  042%=      5-min Rain = 0
KSW1 210309Z 16013KT 31/17 A2979 RMK A01 T03060165  RH  043%=      5-min Rain = 0
KSW1 210310Z 15012KT 31/17 A2979 RMK A01 T03060165  RH  043%=      5-min Rain = 0
KSW1 210311Z 16011KT 31/17 A2979 RMK A01 T03050165  RH  043%=      5-min Rain = 0
KSW1 210312Z 16011KT 31/17 A2979 RMK A01 T03050166  RH  043%=      5-min Rain = 0
KSW1 210313Z 15012KT 30/17 A2979 RMK A01 T03040166  RH  043%=      5-min Rain = 0
KSW1 210314Z 16011KT 30/17 A2979 RMK A01 T03030166  RH  043%=      5-min Rain = 0
KSW1 210315Z 16012KT 30/17 A2979 RMK A01 T03030165  RH  044%=      5-min Rain = 0
KSW1 210316Z 16011KT 30/17 A2979 RMK A01 T03030166  RH  044%=      5-min Rain = 0
KSW1 210317Z 16011KT 30/17 A2979 RMK A01 T03020166  RH  044%=      5-min Rain = 0
KSW1 210318Z 16011KT 30/17 A2979 RMK A01 T03010166  RH  044%=      5-min Rain = 0
KSW1 210319Z 15010KT 30/17 A2979 RMK A01 T03000166  RH  044%=      5-min Rain = 0
KSW1 210320Z 16011KT 30/17 A2979 RMK A01 T03000166  RH  045%=      5-min Rain = 0
KSW1 210321Z 16011KT 30/17 A2979 RMK A01 T02990165  RH  045%=      5-min Rain = 0
KSW1 210322Z 16011KT 30/17 A2979 RMK A01 T02990165  RH  045%=      5-min Rain = 0
KSW1 210323Z 16012KT 30/17 A2979 RMK A01 T02990165  RH  044%=      5-min Rain = 0
KSW1 210324Z 15010KT 30/17 A298 RMK A01 T02990165  RH  044%=      5-min Rain = 0
KSW1 210325Z 16011KT 30/17 A298 RMK A01 T02990165  RH  045%=      5-min Rain = 0
KSW1 210326Z 16011KT 30/17 A298 RMK A01 T02980165  RH  045%=      5-min Rain = 0
KSW1 210327Z 16011KT 30/17 A298 RMK A01 T02980165  RH  045%=      5-min Rain = 0
KSW1 210328Z 16011KT 30/17 A298 RMK A01 T02980165  RH  045%=      5-min Rain = 0
KSW1 210329Z 16010KT 30/17 A298 RMK A01 T02980165  RH  045%=      5-min Rain = 0
KSW1 210330Z 15010KT 30/17 A298 RMK A01 T02970165  RH  045%=      5-min Rain = 0
KSW1 210331Z 15011KT 30/17 A298 RMK A01 T02970165  RH  045%=      5-min Rain = 0
KSW1 210332Z 16010KT 30/16 A298 RMK A01 T02970164  RH  045%=      5-min Rain = 0
KSW1 210333Z 16010KT 30/16 A298 RMK A01 T02970164  RH  045%=      5-min Rain = 0
KSW1 210334Z 15009KT 30/17 A298 RMK A01 T02960165  RH  045%=      5-min Rain = 0
KSW1 210335Z 15009KT 30/17 A298 RMK A01 T02960165  RH  045%=      5-min Rain = 0
KSW1 210336Z 16010KT 30/16 A298 RMK A01 T02950164  RH  045%=      5-min Rain = 0
KSW1 210337Z 16010KT 29/16 A298 RMK A01 T02940164  RH  045%=      5-min Rain = 0
KSW1 210338Z 15010KT 29/16 A298 RMK A01 T02940164  RH  045%=      5-min Rain = 0
KSW1 210339Z 15009KT 29/16 A298 RMK A01 T02940164  RH  045%=      5-min Rain = 0
KSW1 210340Z 15011KT 29/16 A298 RMK A01 T02940164  RH  045%=      5-min Rain = 0
KSW1 210341Z 15009KT 29/16 A298 RMK A01 T02940164  RH  045%=      5-min Rain = 0
KSW1 210342Z 15009KT 29/16 A298 RMK A01 T02940164  RH  046%=      5-min Rain = 0
KSW1 210343Z 15010KT 29/16 A298 RMK A01 T02930164  RH  046%=      5-min Rain = 0
KSW1 210344Z 15009KT 29/16 A2981 RMK A01 T02920164  RH  046%=      5-min Rain = 0
KSW1 210345Z 15010KT 29/16 A298 RMK A01 T02920163  RH  046%=      5-min Rain = 0
KSW1 210346Z 15010KT 29/16 A2981 RMK A01 T02920164  RH  046%=      5-min Rain = 0
KSW1 210347Z 15010KT 29/16 A2981 RMK A01 T02920163  RH  046%=      5-min Rain = 0
KSW1 210348Z 15010KT 29/16 A2981 RMK A01 T02920163  RH  046%=      5-min Rain = 0
KSW1 210349Z 15010KT 29/16 A2981 RMK A01 T02910163  RH  046%=      5-min Rain = 0
KSW1 210350Z 15009KT 29/16 A2981 RMK A01 T02910163  RH  046%=      5-min Rain = 0
KSW1 210351Z 16009KT 29/16 A2981 RMK A01 T02910163  RH  046%=      5-min Rain = 0
KSW1 210352Z 15010KT 29/16 A2981 RMK A01 T02900163  RH  046%=      5-min Rain = 0
KSW1 210353Z 15009KT 29/16 A2981 RMK A01 T02900164  RH  046%=      5-min Rain = 0
KSW1 210354Z 16010KT 29/16 A2981 RMK A01 T02900164  RH  046%=      5-min Rain = 0
KSW1 210355Z 15011KT 29/16 A2981 RMK A01 T02890163  RH  046%=      5-min Rain = 0
KSW1 210356Z 16011KT 29/16 A2981 RMK A01 T02900163  RH  046%=      5-min Rain = 0
KSW1 210357Z 15011KT 29/16 A2981 RMK A01 T02900163  RH  046%=      5-min Rain = 0
KSW1 210358Z 15011KT 29/16 A2981 RMK A01 T02900163  RH  046%=      5-min Rain = 0
KSW1 210359Z 16011KT 29/16 A2981 RMK A01 T02900164  RH  046%=      5-min Rain = 0
KSW1 210400Z 16011KT 29/16 A2981 RMK A01 T02900164  RH  046%=      5-min Rain = 0
KSW1 210401Z 16011KT 29/16 A2981 RMK A01 T02890164  RH  047%=      5-min Rain = 0
KSW1 210402Z 16013KT 29/16 A2981 RMK A01 T02890164  RH  047%=      5-min Rain = 0
KSW1 210403Z 16012KT 29/16 A2981 RMK A01 T02880163  RH  047%=      5-min Rain = 0
KSW1 210404Z 16011KT 29/16 A2981 RMK A01 T02880163  RH  047%=      5-min Rain = 0
KSW1 210405Z 16010KT 29/16 A2981 RMK A01 T02890164  RH  047%=      5-min Rain = 0
KSW1 210406Z 16012KT 29/16 A2981 RMK A01 T02880164  RH  047%=      5-min Rain = 0
KSW1 210407Z 16012KT 29/16 A2981 RMK A01 T02880163  RH  047%=      5-min Rain = 0
KSW1 210408Z 16012KT 29/16 A2981 RMK A01 T02880163  RH  047%=      5-min Rain = 0
KSW1 210409Z 16012KT 29/16 A2981 RMK A01 T02880164  RH  047%=      5-min Rain = 0
KSW1 210410Z 16012KT 29/16 A2982 RMK A01 T02880163  RH  047%=      5-min Rain = 0
KSW1 210411Z 16011KT 29/16 A2982 RMK A01 T02880163  RH  047%=      5-min Rain = 0
KSW1 210412Z 16011KT 29/16 A2982 RMK A01 T02890163  RH  047%=      5-min Rain = 0
KSW1 210413Z 16012KT 29/16 A2981 RMK A01 T02890163  RH  046%=      5-min Rain = 0
KSW1 210414Z 16011KT 29/16 A2982 RMK A01 T02890163  RH  046%=      5-min Rain = 0
KSW1 210415Z 16012KT 29/16 A2982 RMK A01 T02900164  RH  047%=      5-min Rain = 0
KSW1 210416Z 16012KT 29/16 A2982 RMK A01 T02890164  RH  047%=      5-min Rain = 0
KSW1 210417Z 16012KT 29/16 A2982 RMK A01 T02890164  RH  047%=      5-min Rain = 0
KSW1 210418Z 16012KT 29/17 A2982 RMK A01 T02890165  RH  047%=      5-min Rain = 0
KSW1 210419Z 16012KT 29/17 A2982 RMK A01 T02880165  RH  047%=      5-min Rain = 0
KSW1 210420Z 16012KT 29/17 A2982 RMK A01 T02880165  RH  047%=      5-min Rain = 0
KSW1 210421Z 16012KT 29/17 A2982 RMK A01 T02880166  RH  048%=      5-min Rain = 0
KSW1 210422Z 16012KT 29/17 A2982 RMK A01 T02880166  RH  048%=      5-min Rain = 0
KSW1 210423Z 16012KT 29/17 A2982 RMK A01 T02890166  RH  048%=      5-min Rain = 0
KSW1 210424Z 16011KT 29/17 A2982 RMK A01 T02880167  RH  048%=      5-min Rain = 0
KSW1 210425Z 16011KT 29/17 A2982 RMK A01 T02890167  RH  048%=      5-min Rain = 0
KSW1 210426Z 16013KT 29/17 A2982 RMK A01 T02890167  RH  048%=      5-min Rain = 0
KSW1 210427Z 16013KT 29/17 A2982 RMK A01 T02890168  RH  048%=      5-min Rain = 0
KSW1 210428Z 16013KT 29/17 A2982 RMK A01 T02900168  RH  048%=      5-min Rain = 0
KSW1 210429Z 16013KT 29/17 A2982 RMK A01 T02900168  RH  048%=      5-min Rain = 0
KSW1 210430Z 16013KT 29/17 A2982 RMK A01 T02910168  RH  048%=      5-min Rain = 0
KSW1 210431Z 16010KT 29/17 A2982 RMK A01 T02900168  RH  048%=      5-min Rain = 0
KSW1 210432Z 16011KT 29/17 A2982 RMK A01 T02900169  RH  048%=      5-min Rain = 0
KSW1 210433Z 16013KT 29/17 A2982 RMK A01 T02890168  RH  048%=      5-min Rain = 0
KSW1 210434Z 16011KT 29/17 A2982 RMK A01 T02880168  RH  048%=      5-min Rain = 0
KSW1 210435Z 16012KT 29/17 A2982 RMK A01 T02880169  RH  048%=      5-min Rain = 0
KSW1 210436Z 16013KT 29/17 A2982 RMK A01 T02870169  RH  049%=      5-min Rain = 0
KSW1 210437Z 16013KT 29/17 A2982 RMK A01 T02870169  RH  049%=      5-min Rain = 0
KSW1 210438Z 16014KT 29/17 A2982 RMK A01 T02880169  RH  049%=      5-min Rain = 0
KSW1 210439Z 17012KT 29/17 A2982 RMK A01 T02890169  RH  048%=      5-min Rain = 0
KSW1 210440Z 17013KT 29/17 A2982 RMK A01 T02890169  RH  048%=      5-min Rain = 0
KSW1 210441Z 17013KT 29/17 A2982 RMK A01 T02900169  RH  048%=      5-min Rain = 0
KSW1 210442Z 17012KT 29/17 A2982 RMK A01 T02910169  RH  048%=      5-min Rain = 0
KSW1 210443Z 17013KT 29/17 A2982 RMK A01 T02920169  RH  048%=      5-min Rain = 0
KSW1 210444Z 17014KT 29/17 A2982 RMK A01 T02920169  RH  048%=      5-min Rain = 0
KSW1 210445Z 17014KT 29/17 A2982 RMK A01 T02920169  RH  048%=      5-min Rain = 0
KSW1 210446Z 17015KT 29/17 A2982 RMK A01 T02930170  RH  047%=      5-min Rain = 0
KSW1 210447Z 17014G19KT 29/17 A2982 RMK A01 T02940169  RH  047%=      5-min Rain = 0
KSW1 210448Z 17014G19KT 29/17 A2982 RMK A01 T02940169  RH  047%=      5-min Rain = 0
KSW1 210449Z 17012KT 29/17 A2982 RMK A01 T02940170  RH  047%=      5-min Rain = 0
KSW1 210450Z 17011KT 29/17 A2982 RMK A01 T02940171  RH  047%=      5-min Rain = 0
KSW1 210451Z 17014G20KT 29/17 A2982 RMK A01 T02930171  RH  048%=      5-min Rain = 0
KSW1 210452Z 17014KT 29/17 A2982 RMK A01 T02920171  RH  048%=      5-min Rain = 0
KSW1 210453Z 17013KT 29/17 A2982 RMK A01 T02920171  RH  048%=      5-min Rain = 0
KSW1 210454Z 17015KT 29/17 A2982 RMK A01 T02920171  RH  048%=      5-min Rain = 0
KSW1 210455Z 17014KT 29/17 A2982 RMK A01 T02920171  RH  048%=      5-min Rain = 0
KSW1 210456Z 17014KT 29/17 A2982 RMK A01 T02920171  RH  048%=      5-min Rain = 0
KSW1 210457Z 17012KT 29/17 A2982 RMK A01 T02920172  RH  048%=      5-min Rain = 0
KSW1 210458Z 17013KT 29/17 A2982 RMK A01 T02920172  RH  048%=      5-min Rain = 0
KSW1 210459Z 17013KT 29/17 A2982 RMK A01 T02910172  RH  049%=      5-min Rain = 0

Page generated in 0.1196 seconds.